<?xml version="1.0" encoding="UTF-8" standalone="no" ?>
<gpx xmlns="http://www.topografix.com/GPX/1/1" xmlns:xsi="http://www.w3.org/2001/XMLSchema-instance" xsi:schemaLocation="http://www.topografix.com/GPX/1/1 http://www.topografix.com/GPX/1/1/gpx.xsd" version="1.1" creator="VisuGPX - https://www.visugpx.com">
  <metadata>
    <name>St Guiral Lac des Pises</name>
    <desc><![CDATA[Par le Col de l\'homme mort]]></desc>
  </metadata>
  <trk>
    <name><![CDATA[St Guiral Lac des Pises_1]]></name>
    <trkseg>
      <trkpt lat="44.02917" lon="3.48539">
        <ele>1310</ele>
        <time>2013-09-15T08:07:26Z</time>
      </trkpt>
      <trkpt lat="44.0292" lon="3.48539">
        <ele>1310</ele>
        <time>2013-09-15T08:07:29Z</time>
      </trkpt>
      <trkpt lat="44.0293" lon="3.48524">
        <ele>1315</ele>
        <time>2013-09-15T08:07:55Z</time>
      </trkpt>
      <trkpt lat="44.02939" lon="3.48517">
        <ele>1319</ele>
        <time>2013-09-15T08:08:13Z</time>
      </trkpt>
      <trkpt lat="44.02957" lon="3.48493">
        <ele>1295</ele>
        <time>2013-09-15T08:08:43Z</time>
      </trkpt>
      <trkpt lat="44.02968" lon="3.48482">
        <ele>1300</ele>
        <time>2013-09-15T08:09:02Z</time>
      </trkpt>
      <trkpt lat="44.02978" lon="3.48476">
        <ele>1303</ele>
        <time>2013-09-15T08:09:15Z</time>
      </trkpt>
      <trkpt lat="44.02988" lon="3.48474">
        <ele>1303</ele>
        <time>2013-09-15T08:09:28Z</time>
      </trkpt>
      <trkpt lat="44.0301" lon="3.4848">
        <ele>1306</ele>
        <time>2013-09-15T08:10:00Z</time>
      </trkpt>
      <trkpt lat="44.03018" lon="3.48477">
        <ele>1310</ele>
        <time>2013-09-15T08:10:13Z</time>
      </trkpt>
      <trkpt lat="44.03031" lon="3.48479">
        <ele>1311</ele>
        <time>2013-09-15T08:10:26Z</time>
      </trkpt>
      <trkpt lat="44.03046" lon="3.48481">
        <ele>1312</ele>
        <time>2013-09-15T08:10:36Z</time>
      </trkpt>
      <trkpt lat="44.03054" lon="3.48481">
        <ele>1312</ele>
        <time>2013-09-15T08:10:44Z</time>
      </trkpt>
      <trkpt lat="44.03059" lon="3.48479">
        <ele>1312</ele>
        <time>2013-09-15T08:10:51Z</time>
      </trkpt>
      <trkpt lat="44.03062" lon="3.48471">
        <ele>1314</ele>
        <time>2013-09-15T08:11:01Z</time>
      </trkpt>
      <trkpt lat="44.03065" lon="3.48446">
        <ele>1315</ele>
        <time>2013-09-15T08:11:23Z</time>
      </trkpt>
      <trkpt lat="44.03069" lon="3.48441">
        <ele>1316</ele>
        <time>2013-09-15T08:11:30Z</time>
      </trkpt>
      <trkpt lat="44.03099" lon="3.48427">
        <ele>1317</ele>
        <time>2013-09-15T08:11:58Z</time>
      </trkpt>
      <trkpt lat="44.03123" lon="3.48419">
        <ele>1320</ele>
        <time>2013-09-15T08:12:16Z</time>
      </trkpt>
      <trkpt lat="44.03145" lon="3.48405">
        <ele>1322</ele>
        <time>2013-09-15T08:12:38Z</time>
      </trkpt>
      <trkpt lat="44.0315" lon="3.48399">
        <ele>1322</ele>
        <time>2013-09-15T08:12:50Z</time>
      </trkpt>
      <trkpt lat="44.03165" lon="3.4839">
        <ele>1312</ele>
        <time>2013-09-15T08:13:10Z</time>
      </trkpt>
      <trkpt lat="44.0319" lon="3.48379">
        <ele>1313</ele>
        <time>2013-09-15T08:13:39Z</time>
      </trkpt>
      <trkpt lat="44.03196" lon="3.48369">
        <ele>1312</ele>
        <time>2013-09-15T08:13:48Z</time>
      </trkpt>
      <trkpt lat="44.03199" lon="3.48356">
        <ele>1312</ele>
        <time>2013-09-15T08:13:54Z</time>
      </trkpt>
      <trkpt lat="44.032" lon="3.48333">
        <ele>1312</ele>
        <time>2013-09-15T08:14:05Z</time>
      </trkpt>
      <trkpt lat="44.03199" lon="3.48279">
        <ele>1313</ele>
        <time>2013-09-15T08:14:31Z</time>
      </trkpt>
      <trkpt lat="44.03196" lon="3.48273">
        <ele>1314</ele>
        <time>2013-09-15T08:14:36Z</time>
      </trkpt>
      <trkpt lat="44.03179" lon="3.4826">
        <ele>1316</ele>
        <time>2013-09-15T08:14:51Z</time>
      </trkpt>
      <trkpt lat="44.03174" lon="3.48252">
        <ele>1316</ele>
        <time>2013-09-15T08:15:00Z</time>
      </trkpt>
      <trkpt lat="44.03163" lon="3.48241">
        <ele>1317</ele>
        <time>2013-09-15T08:15:12Z</time>
      </trkpt>
      <trkpt lat="44.03158" lon="3.48228">
        <ele>1317</ele>
        <time>2013-09-15T08:15:22Z</time>
      </trkpt>
      <trkpt lat="44.03144" lon="3.48152">
        <ele>1316</ele>
        <time>2013-09-15T08:15:58Z</time>
      </trkpt>
      <trkpt lat="44.03143" lon="3.48131">
        <ele>1313</ele>
        <time>2013-09-15T08:16:10Z</time>
      </trkpt>
      <trkpt lat="44.03126" lon="3.48102">
        <ele>1309</ele>
        <time>2013-09-15T08:16:27Z</time>
      </trkpt>
      <trkpt lat="44.0311" lon="3.48059">
        <ele>1307</ele>
        <time>2013-09-15T08:16:55Z</time>
      </trkpt>
      <trkpt lat="44.03112" lon="3.48033">
        <ele>1307</ele>
        <time>2013-09-15T08:17:10Z</time>
      </trkpt>
      <trkpt lat="44.03104" lon="3.48014">
        <ele>1308</ele>
        <time>2013-09-15T08:17:23Z</time>
      </trkpt>
      <trkpt lat="44.03101" lon="3.4799">
        <ele>1307</ele>
        <time>2013-09-15T08:17:36Z</time>
      </trkpt>
      <trkpt lat="44.0309" lon="3.47949">
        <ele>1302</ele>
        <time>2013-09-15T08:17:55Z</time>
      </trkpt>
      <trkpt lat="44.03088" lon="3.47934">
        <ele>1299</ele>
        <time>2013-09-15T08:18:02Z</time>
      </trkpt>
      <trkpt lat="44.03085" lon="3.47919">
        <ele>1296</ele>
        <time>2013-09-15T08:18:09Z</time>
      </trkpt>
      <trkpt lat="44.03085" lon="3.47908">
        <ele>1295</ele>
        <time>2013-09-15T08:18:16Z</time>
      </trkpt>
      <trkpt lat="44.03082" lon="3.47891">
        <ele>1292</ele>
        <time>2013-09-15T08:18:27Z</time>
      </trkpt>
      <trkpt lat="44.0308" lon="3.47843">
        <ele>1293</ele>
        <time>2013-09-15T08:18:56Z</time>
      </trkpt>
      <trkpt lat="44.03072" lon="3.47831">
        <ele>1295</ele>
        <time>2013-09-15T08:19:05Z</time>
      </trkpt>
      <trkpt lat="44.03066" lon="3.47813">
        <ele>1294</ele>
        <time>2013-09-15T08:19:14Z</time>
      </trkpt>
      <trkpt lat="44.03065" lon="3.47806">
        <ele>1293</ele>
        <time>2013-09-15T08:19:18Z</time>
      </trkpt>
      <trkpt lat="44.03065" lon="3.4778">
        <ele>1291</ele>
        <time>2013-09-15T08:19:31Z</time>
      </trkpt>
      <trkpt lat="44.03064" lon="3.47763">
        <ele>1290</ele>
        <time>2013-09-15T08:19:40Z</time>
      </trkpt>
      <trkpt lat="44.03059" lon="3.47731">
        <ele>1290</ele>
        <time>2013-09-15T08:19:59Z</time>
      </trkpt>
      <trkpt lat="44.03048" lon="3.47701">
        <ele>1289</ele>
        <time>2013-09-15T08:20:16Z</time>
      </trkpt>
      <trkpt lat="44.03041" lon="3.47667">
        <ele>1285</ele>
        <time>2013-09-15T08:20:36Z</time>
      </trkpt>
      <trkpt lat="44.03042" lon="3.47662">
        <ele>1285</ele>
        <time>2013-09-15T08:20:41Z</time>
      </trkpt>
      <trkpt lat="44.03052" lon="3.47647">
        <ele>1285</ele>
        <time>2013-09-15T08:20:56Z</time>
      </trkpt>
      <trkpt lat="44.0306" lon="3.47631">
        <ele>1285</ele>
        <time>2013-09-15T08:21:06Z</time>
      </trkpt>
      <trkpt lat="44.03063" lon="3.47604">
        <ele>1287</ele>
        <time>2013-09-15T08:21:30Z</time>
      </trkpt>
      <trkpt lat="44.03069" lon="3.47593">
        <ele>1292</ele>
        <time>2013-09-15T08:21:42Z</time>
      </trkpt>
      <trkpt lat="44.03071" lon="3.47579">
        <ele>1293</ele>
        <time>2013-09-15T08:21:54Z</time>
      </trkpt>
      <trkpt lat="44.03082" lon="3.47547">
        <ele>1296</ele>
        <time>2013-09-15T08:22:12Z</time>
      </trkpt>
      <trkpt lat="44.03091" lon="3.47503">
        <ele>1295</ele>
        <time>2013-09-15T08:22:35Z</time>
      </trkpt>
      <trkpt lat="44.03097" lon="3.47484">
        <ele>1295</ele>
        <time>2013-09-15T08:22:49Z</time>
      </trkpt>
      <trkpt lat="44.03102" lon="3.47461">
        <ele>1298</ele>
        <time>2013-09-15T08:23:03Z</time>
      </trkpt>
      <trkpt lat="44.03103" lon="3.4745">
        <ele>1295</ele>
        <time>2013-09-15T08:23:10Z</time>
      </trkpt>
      <trkpt lat="44.03101" lon="3.47441">
        <ele>1296</ele>
        <time>2013-09-15T08:23:17Z</time>
      </trkpt>
      <trkpt lat="44.03101" lon="3.47435">
        <ele>1298</ele>
        <time>2013-09-15T08:23:21Z</time>
      </trkpt>
      <trkpt lat="44.03108" lon="3.47401">
        <ele>1304</ele>
        <time>2013-09-15T08:23:44Z</time>
      </trkpt>
      <trkpt lat="44.03112" lon="3.47388">
        <ele>1304</ele>
        <time>2013-09-15T08:23:53Z</time>
      </trkpt>
      <trkpt lat="44.03114" lon="3.47374">
        <ele>1306</ele>
        <time>2013-09-15T08:24:05Z</time>
      </trkpt>
      <trkpt lat="44.03129" lon="3.47344">
        <ele>1303</ele>
        <time>2013-09-15T08:24:25Z</time>
      </trkpt>
      <trkpt lat="44.03134" lon="3.47326">
        <ele>1302</ele>
        <time>2013-09-15T08:24:35Z</time>
      </trkpt>
      <trkpt lat="44.03138" lon="3.47308">
        <ele>1300</ele>
        <time>2013-09-15T08:24:43Z</time>
      </trkpt>
      <trkpt lat="44.03138" lon="3.47287">
        <ele>1300</ele>
        <time>2013-09-15T08:24:53Z</time>
      </trkpt>
      <trkpt lat="44.03138" lon="3.47283">
        <ele>1300</ele>
        <time>2013-09-15T08:24:56Z</time>
      </trkpt>
      <trkpt lat="44.03133" lon="3.47277">
        <ele>1299</ele>
        <time>2013-09-15T08:25:02Z</time>
      </trkpt>
      <trkpt lat="44.03112" lon="3.47256">
        <ele>1297</ele>
        <time>2013-09-15T08:25:20Z</time>
      </trkpt>
      <trkpt lat="44.03087" lon="3.47213">
        <ele>1298</ele>
        <time>2013-09-15T08:25:54Z</time>
      </trkpt>
      <trkpt lat="44.03071" lon="3.47198">
        <ele>1299</ele>
        <time>2013-09-15T08:26:10Z</time>
      </trkpt>
      <trkpt lat="44.03061" lon="3.47192">
        <ele>1300</ele>
        <time>2013-09-15T08:26:17Z</time>
      </trkpt>
      <trkpt lat="44.03039" lon="3.47174">
        <ele>1298</ele>
        <time>2013-09-15T08:26:34Z</time>
      </trkpt>
      <trkpt lat="44.03034" lon="3.47163">
        <ele>1297</ele>
        <time>2013-09-15T08:26:42Z</time>
      </trkpt>
      <trkpt lat="44.03033" lon="3.47142">
        <ele>1295</ele>
        <time>2013-09-15T08:26:57Z</time>
      </trkpt>
      <trkpt lat="44.03044" lon="3.47115">
        <ele>1291</ele>
        <time>2013-09-15T08:27:15Z</time>
      </trkpt>
      <trkpt lat="44.03045" lon="3.47091">
        <ele>1291</ele>
        <time>2013-09-15T08:27:31Z</time>
      </trkpt>
      <trkpt lat="44.03044" lon="3.47074">
        <ele>1292</ele>
        <time>2013-09-15T08:27:45Z</time>
      </trkpt>
      <trkpt lat="44.03048" lon="3.47058">
        <ele>1297</ele>
        <time>2013-09-15T08:27:55Z</time>
      </trkpt>
      <trkpt lat="44.03055" lon="3.47044">
        <ele>1299</ele>
        <time>2013-09-15T08:28:02Z</time>
      </trkpt>
      <trkpt lat="44.03072" lon="3.47018">
        <ele>1302</ele>
        <time>2013-09-15T08:28:19Z</time>
      </trkpt>
      <trkpt lat="44.03072" lon="3.47012">
        <ele>1304</ele>
        <time>2013-09-15T08:28:27Z</time>
      </trkpt>
      <trkpt lat="44.03079" lon="3.46993">
        <ele>1308</ele>
        <time>2013-09-15T08:28:44Z</time>
      </trkpt>
      <trkpt lat="44.03098" lon="3.46957">
        <ele>1297</ele>
        <time>2013-09-15T08:29:16Z</time>
      </trkpt>
      <trkpt lat="44.03105" lon="3.46924">
        <ele>1298</ele>
        <time>2013-09-15T08:29:35Z</time>
      </trkpt>
      <trkpt lat="44.03115" lon="3.46895">
        <ele>1299</ele>
        <time>2013-09-15T08:29:51Z</time>
      </trkpt>
      <trkpt lat="44.03127" lon="3.46844">
        <ele>1298</ele>
        <time>2013-09-15T08:30:18Z</time>
      </trkpt>
      <trkpt lat="44.03129" lon="3.4683">
        <ele>1297</ele>
        <time>2013-09-15T08:30:25Z</time>
      </trkpt>
      <trkpt lat="44.03127" lon="3.46814">
        <ele>1293</ele>
        <time>2013-09-15T08:30:34Z</time>
      </trkpt>
      <trkpt lat="44.03116" lon="3.46784">
        <ele>1286</ele>
        <time>2013-09-15T08:30:55Z</time>
      </trkpt>
      <trkpt lat="44.03108" lon="3.46772">
        <ele>1286</ele>
        <time>2013-09-15T08:31:06Z</time>
      </trkpt>
      <trkpt lat="44.03094" lon="3.46758">
        <ele>1289</ele>
        <time>2013-09-15T08:31:19Z</time>
      </trkpt>
      <trkpt lat="44.03072" lon="3.46739">
        <ele>1288</ele>
        <time>2013-09-15T08:31:40Z</time>
      </trkpt>
      <trkpt lat="44.03053" lon="3.46717">
        <ele>1292</ele>
        <time>2013-09-15T08:32:00Z</time>
      </trkpt>
      <trkpt lat="44.03048" lon="3.46714">
        <ele>1293</ele>
        <time>2013-09-15T08:32:05Z</time>
      </trkpt>
      <trkpt lat="44.03035" lon="3.4671">
        <ele>1293</ele>
        <time>2013-09-15T08:32:15Z</time>
      </trkpt>
      <trkpt lat="44.03023" lon="3.46692">
        <ele>1293</ele>
        <time>2013-09-15T08:32:30Z</time>
      </trkpt>
      <trkpt lat="44.03002" lon="3.46668">
        <ele>1295</ele>
        <time>2013-09-15T08:32:50Z</time>
      </trkpt>
      <trkpt lat="44.02981" lon="3.46632">
        <ele>1294</ele>
        <time>2013-09-15T08:33:16Z</time>
      </trkpt>
      <trkpt lat="44.02967" lon="3.46611">
        <ele>1295</ele>
        <time>2013-09-15T08:33:34Z</time>
      </trkpt>
      <trkpt lat="44.0296" lon="3.46604">
        <ele>1294</ele>
        <time>2013-09-15T08:33:42Z</time>
      </trkpt>
      <trkpt lat="44.02946" lon="3.46595">
        <ele>1293</ele>
        <time>2013-09-15T08:33:57Z</time>
      </trkpt>
      <trkpt lat="44.02913" lon="3.46584">
        <ele>1296</ele>
        <time>2013-09-15T08:34:25Z</time>
      </trkpt>
      <trkpt lat="44.02895" lon="3.46583">
        <ele>1293</ele>
        <time>2013-09-15T08:34:41Z</time>
      </trkpt>
      <trkpt lat="44.02883" lon="3.46585">
        <ele>1294</ele>
        <time>2013-09-15T08:34:53Z</time>
      </trkpt>
      <trkpt lat="44.02869" lon="3.4659">
        <ele>1297</ele>
        <time>2013-09-15T08:35:09Z</time>
      </trkpt>
      <trkpt lat="44.02858" lon="3.46598">
        <ele>1297</ele>
        <time>2013-09-15T08:35:23Z</time>
      </trkpt>
      <trkpt lat="44.02836" lon="3.46608">
        <ele>1303</ele>
        <time>2013-09-15T08:35:45Z</time>
      </trkpt>
      <trkpt lat="44.02805" lon="3.46633">
        <ele>1310</ele>
        <time>2013-09-15T08:36:22Z</time>
      </trkpt>
      <trkpt lat="44.02791" lon="3.4664">
        <ele>1311</ele>
        <time>2013-09-15T08:36:30Z</time>
      </trkpt>
      <trkpt lat="44.02786" lon="3.46642">
        <ele>1311</ele>
        <time>2013-09-15T08:36:34Z</time>
      </trkpt>
      <trkpt lat="44.02765" lon="3.46643">
        <ele>1314</ele>
        <time>2013-09-15T08:36:47Z</time>
      </trkpt>
      <trkpt lat="44.02746" lon="3.46632">
        <ele>1313</ele>
        <time>2013-09-15T08:37:08Z</time>
      </trkpt>
      <trkpt lat="44.02735" lon="3.46619">
        <ele>1310</ele>
        <time>2013-09-15T08:37:23Z</time>
      </trkpt>
      <trkpt lat="44.02716" lon="3.46606">
        <ele>1310</ele>
        <time>2013-09-15T08:37:41Z</time>
      </trkpt>
      <trkpt lat="44.02681" lon="3.46571">
        <ele>1308</ele>
        <time>2013-09-15T08:38:21Z</time>
      </trkpt>
      <trkpt lat="44.02678" lon="3.46561">
        <ele>1307</ele>
        <time>2013-09-15T08:38:28Z</time>
      </trkpt>
      <trkpt lat="44.02675" lon="3.46543">
        <ele>1302</ele>
        <time>2013-09-15T08:38:43Z</time>
      </trkpt>
      <trkpt lat="44.02676" lon="3.46505">
        <ele>1308</ele>
        <time>2013-09-15T08:39:11Z</time>
      </trkpt>
      <trkpt lat="44.0268" lon="3.46486">
        <ele>1313</ele>
        <time>2013-09-15T08:39:24Z</time>
      </trkpt>
      <trkpt lat="44.02687" lon="3.46468">
        <ele>1317</ele>
        <time>2013-09-15T08:39:38Z</time>
      </trkpt>
      <trkpt lat="44.02696" lon="3.46451">
        <ele>1321</ele>
        <time>2013-09-15T08:39:50Z</time>
      </trkpt>
      <trkpt lat="44.02704" lon="3.4643">
        <ele>1321</ele>
        <time>2013-09-15T08:40:05Z</time>
      </trkpt>
      <trkpt lat="44.02723" lon="3.46408">
        <ele>1321</ele>
        <time>2013-09-15T08:40:29Z</time>
      </trkpt>
      <trkpt lat="44.02733" lon="3.46394">
        <ele>1320</ele>
        <time>2013-09-15T08:40:40Z</time>
      </trkpt>
      <trkpt lat="44.02769" lon="3.46364">
        <ele>1321</ele>
        <time>2013-09-15T08:41:16Z</time>
      </trkpt>
      <trkpt lat="44.0279" lon="3.46338">
        <ele>1313</ele>
        <time>2013-09-15T08:41:38Z</time>
      </trkpt>
      <trkpt lat="44.02797" lon="3.46322">
        <ele>1299</ele>
        <time>2013-09-15T08:41:50Z</time>
      </trkpt>
      <trkpt lat="44.02798" lon="3.46312">
        <ele>1300</ele>
        <time>2013-09-15T08:41:56Z</time>
      </trkpt>
      <trkpt lat="44.02797" lon="3.46305">
        <ele>1302</ele>
        <time>2013-09-15T08:42:01Z</time>
      </trkpt>
      <trkpt lat="44.02793" lon="3.46299">
        <ele>1305</ele>
        <time>2013-09-15T08:42:07Z</time>
      </trkpt>
      <trkpt lat="44.02783" lon="3.46295">
        <ele>1308</ele>
        <time>2013-09-15T08:42:19Z</time>
      </trkpt>
      <trkpt lat="44.02777" lon="3.46295">
        <ele>1310</ele>
        <time>2013-09-15T08:42:25Z</time>
      </trkpt>
      <trkpt lat="44.02755" lon="3.46298">
        <ele>1313</ele>
        <time>2013-09-15T08:42:45Z</time>
      </trkpt>
      <trkpt lat="44.02736" lon="3.4629">
        <ele>1316</ele>
        <time>2013-09-15T08:43:02Z</time>
      </trkpt>
      <trkpt lat="44.02725" lon="3.46287">
        <ele>1317</ele>
        <time>2013-09-15T08:43:12Z</time>
      </trkpt>
      <trkpt lat="44.02702" lon="3.4629">
        <ele>1316</ele>
        <time>2013-09-15T08:43:31Z</time>
      </trkpt>
      <trkpt lat="44.02693" lon="3.46289">
        <ele>1316</ele>
        <time>2013-09-15T08:43:38Z</time>
      </trkpt>
      <trkpt lat="44.0267" lon="3.46278">
        <ele>1320</ele>
        <time>2013-09-15T08:43:59Z</time>
      </trkpt>
      <trkpt lat="44.02595" lon="3.46249">
        <ele>1322</ele>
        <time>2013-09-15T08:45:09Z</time>
      </trkpt>
      <trkpt lat="44.02565" lon="3.46241">
        <ele>1324</ele>
        <time>2013-09-15T08:45:34Z</time>
      </trkpt>
      <trkpt lat="44.02552" lon="3.46235">
        <ele>1325</ele>
        <time>2013-09-15T08:45:45Z</time>
      </trkpt>
      <trkpt lat="44.02527" lon="3.46218">
        <ele>1329</ele>
        <time>2013-09-15T08:46:08Z</time>
      </trkpt>
      <trkpt lat="44.02457" lon="3.46154">
        <ele>1328</ele>
        <time>2013-09-15T08:47:18Z</time>
      </trkpt>
      <trkpt lat="44.02435" lon="3.46127">
        <ele>1328</ele>
        <time>2013-09-15T08:47:42Z</time>
      </trkpt>
      <trkpt lat="44.02405" lon="3.4608">
        <ele>1324</ele>
        <time>2013-09-15T08:48:19Z</time>
      </trkpt>
      <trkpt lat="44.02395" lon="3.4605">
        <ele>1321</ele>
        <time>2013-09-15T08:48:39Z</time>
      </trkpt>
      <trkpt lat="44.02389" lon="3.46022">
        <ele>1318</ele>
        <time>2013-09-15T08:48:58Z</time>
      </trkpt>
      <trkpt lat="44.02385" lon="3.46005">
        <ele>1320</ele>
        <time>2013-09-15T08:49:11Z</time>
      </trkpt>
      <trkpt lat="44.02385" lon="3.45997">
        <ele>1322</ele>
        <time>2013-09-15T08:49:14Z</time>
      </trkpt>
      <trkpt lat="44.02392" lon="3.45973">
        <ele>1323</ele>
        <time>2013-09-15T08:49:25Z</time>
      </trkpt>
      <trkpt lat="44.02397" lon="3.45949">
        <ele>1326</ele>
        <time>2013-09-15T08:49:38Z</time>
      </trkpt>
      <trkpt lat="44.02394" lon="3.45932">
        <ele>1327</ele>
        <time>2013-09-15T08:49:48Z</time>
      </trkpt>
      <trkpt lat="44.02393" lon="3.45905">
        <ele>1328</ele>
        <time>2013-09-15T08:50:04Z</time>
      </trkpt>
      <trkpt lat="44.0239" lon="3.45887">
        <ele>1328</ele>
        <time>2013-09-15T08:50:14Z</time>
      </trkpt>
      <trkpt lat="44.02385" lon="3.45871">
        <ele>1329</ele>
        <time>2013-09-15T08:50:25Z</time>
      </trkpt>
      <trkpt lat="44.02375" lon="3.45858">
        <ele>1328</ele>
        <time>2013-09-15T08:50:37Z</time>
      </trkpt>
      <trkpt lat="44.02366" lon="3.45852">
        <ele>1326</ele>
        <time>2013-09-15T08:50:45Z</time>
      </trkpt>
      <trkpt lat="44.02354" lon="3.4585">
        <ele>1325</ele>
        <time>2013-09-15T08:50:54Z</time>
      </trkpt>
      <trkpt lat="44.02342" lon="3.45852">
        <ele>1326</ele>
        <time>2013-09-15T08:51:04Z</time>
      </trkpt>
      <trkpt lat="44.02327" lon="3.45852">
        <ele>1325</ele>
        <time>2013-09-15T08:51:16Z</time>
      </trkpt>
      <trkpt lat="44.02316" lon="3.45849">
        <ele>1324</ele>
        <time>2013-09-15T08:51:25Z</time>
      </trkpt>
      <trkpt lat="44.02295" lon="3.45835">
        <ele>1324</ele>
        <time>2013-09-15T08:51:45Z</time>
      </trkpt>
      <trkpt lat="44.02272" lon="3.45823">
        <ele>1325</ele>
        <time>2013-09-15T08:52:04Z</time>
      </trkpt>
      <trkpt lat="44.02262" lon="3.45809">
        <ele>1327</ele>
        <time>2013-09-15T08:52:20Z</time>
      </trkpt>
      <trkpt lat="44.02261" lon="3.45757">
        <ele>1328</ele>
        <time>2013-09-15T08:52:54Z</time>
      </trkpt>
      <trkpt lat="44.02258" lon="3.45735">
        <ele>1328</ele>
        <time>2013-09-15T08:53:06Z</time>
      </trkpt>
      <trkpt lat="44.02253" lon="3.45715">
        <ele>1325</ele>
        <time>2013-09-15T08:53:19Z</time>
      </trkpt>
      <trkpt lat="44.02245" lon="3.45701">
        <ele>1325</ele>
        <time>2013-09-15T08:53:31Z</time>
      </trkpt>
      <trkpt lat="44.0224" lon="3.45687">
        <ele>1324</ele>
        <time>2013-09-15T08:53:40Z</time>
      </trkpt>
      <trkpt lat="44.0224" lon="3.4567">
        <ele>1316</ele>
        <time>2013-09-15T08:53:52Z</time>
      </trkpt>
      <trkpt lat="44.02238" lon="3.45667">
        <ele>1317</ele>
        <time>2013-09-15T08:53:59Z</time>
      </trkpt>
      <trkpt lat="44.02236" lon="3.45668">
        <ele>1315</ele>
        <time>2013-09-15T08:54:11Z</time>
      </trkpt>
      <trkpt lat="44.02239" lon="3.45662">
        <ele>1315</ele>
        <time>2013-09-15T08:54:32Z</time>
      </trkpt>
      <trkpt lat="44.02238" lon="3.45658">
        <ele>1323</ele>
        <time>2013-09-15T08:54:56Z</time>
      </trkpt>
      <trkpt lat="44.02242" lon="3.45651">
        <ele>1323</ele>
        <time>2013-09-15T08:55:04Z</time>
      </trkpt>
      <trkpt lat="44.02253" lon="3.45642">
        <ele>1322</ele>
        <time>2013-09-15T08:55:16Z</time>
      </trkpt>
      <trkpt lat="44.0227" lon="3.45624">
        <ele>1324</ele>
        <time>2013-09-15T08:55:38Z</time>
      </trkpt>
      <trkpt lat="44.02282" lon="3.45605">
        <ele>1322</ele>
        <time>2013-09-15T08:55:54Z</time>
      </trkpt>
      <trkpt lat="44.02295" lon="3.45592">
        <ele>1319</ele>
        <time>2013-09-15T08:56:16Z</time>
      </trkpt>
      <trkpt lat="44.02304" lon="3.45575">
        <ele>1314</ele>
        <time>2013-09-15T08:56:34Z</time>
      </trkpt>
      <trkpt lat="44.0232" lon="3.45535">
        <ele>1313</ele>
        <time>2013-09-15T08:57:11Z</time>
      </trkpt>
      <trkpt lat="44.02326" lon="3.45514">
        <ele>1317</ele>
        <time>2013-09-15T08:57:31Z</time>
      </trkpt>
      <trkpt lat="44.02331" lon="3.45463">
        <ele>1317</ele>
        <time>2013-09-15T08:58:19Z</time>
      </trkpt>
      <trkpt lat="44.02328" lon="3.45484">
        <ele>1322</ele>
        <time>2013-09-15T09:11:49Z</time>
      </trkpt>
      <trkpt lat="44.02307" lon="3.45542">
        <ele>1319</ele>
        <time>2013-09-15T09:12:32Z</time>
      </trkpt>
      <trkpt lat="44.023" lon="3.45557">
        <ele>1318</ele>
        <time>2013-09-15T09:12:44Z</time>
      </trkpt>
      <trkpt lat="44.02297" lon="3.45572">
        <ele>1318</ele>
        <time>2013-09-15T09:12:57Z</time>
      </trkpt>
      <trkpt lat="44.02287" lon="3.45589">
        <ele>1317</ele>
        <time>2013-09-15T09:13:11Z</time>
      </trkpt>
      <trkpt lat="44.02274" lon="3.45603">
        <ele>1318</ele>
        <time>2013-09-15T09:13:25Z</time>
      </trkpt>
      <trkpt lat="44.02243" lon="3.4563">
        <ele>1316</ele>
        <time>2013-09-15T09:14:01Z</time>
      </trkpt>
      <trkpt lat="44.02238" lon="3.45642">
        <ele>1314</ele>
        <time>2013-09-15T09:14:15Z</time>
      </trkpt>
      <trkpt lat="44.0224" lon="3.45651">
        <ele>1316</ele>
        <time>2013-09-15T09:15:34Z</time>
      </trkpt>
      <trkpt lat="44.02222" lon="3.45642">
        <ele>1314</ele>
        <time>2013-09-15T09:16:12Z</time>
      </trkpt>
      <trkpt lat="44.02216" lon="3.45636">
        <ele>1313</ele>
        <time>2013-09-15T09:16:20Z</time>
      </trkpt>
      <trkpt lat="44.02209" lon="3.45626">
        <ele>1311</ele>
        <time>2013-09-15T09:16:29Z</time>
      </trkpt>
      <trkpt lat="44.02203" lon="3.45607">
        <ele>1309</ele>
        <time>2013-09-15T09:16:43Z</time>
      </trkpt>
      <trkpt lat="44.02197" lon="3.456">
        <ele>1308</ele>
        <time>2013-09-15T09:16:51Z</time>
      </trkpt>
      <trkpt lat="44.02189" lon="3.45593">
        <ele>1308</ele>
        <time>2013-09-15T09:17:01Z</time>
      </trkpt>
      <trkpt lat="44.02183" lon="3.45584">
        <ele>1308</ele>
        <time>2013-09-15T09:17:11Z</time>
      </trkpt>
      <trkpt lat="44.02175" lon="3.45576">
        <ele>1309</ele>
        <time>2013-09-15T09:17:20Z</time>
      </trkpt>
      <trkpt lat="44.02164" lon="3.45557">
        <ele>1306</ele>
        <time>2013-09-15T09:17:37Z</time>
      </trkpt>
      <trkpt lat="44.0216" lon="3.45554">
        <ele>1306</ele>
        <time>2013-09-15T09:17:43Z</time>
      </trkpt>
      <trkpt lat="44.02153" lon="3.45552">
        <ele>1306</ele>
        <time>2013-09-15T09:17:52Z</time>
      </trkpt>
      <trkpt lat="44.02149" lon="3.45549">
        <ele>1306</ele>
        <time>2013-09-15T09:17:59Z</time>
      </trkpt>
      <trkpt lat="44.02143" lon="3.45548">
        <ele>1306</ele>
        <time>2013-09-15T09:18:06Z</time>
      </trkpt>
      <trkpt lat="44.02122" lon="3.4553">
        <ele>1306</ele>
        <time>2013-09-15T09:18:33Z</time>
      </trkpt>
      <trkpt lat="44.02116" lon="3.45527">
        <ele>1306</ele>
        <time>2013-09-15T09:18:40Z</time>
      </trkpt>
      <trkpt lat="44.02106" lon="3.45525">
        <ele>1306</ele>
        <time>2013-09-15T09:18:51Z</time>
      </trkpt>
      <trkpt lat="44.02092" lon="3.45527">
        <ele>1306</ele>
        <time>2013-09-15T09:19:05Z</time>
      </trkpt>
      <trkpt lat="44.02065" lon="3.45544">
        <ele>1307</ele>
        <time>2013-09-15T09:19:31Z</time>
      </trkpt>
      <trkpt lat="44.02055" lon="3.45552">
        <ele>1305</ele>
        <time>2013-09-15T09:19:40Z</time>
      </trkpt>
      <trkpt lat="44.02032" lon="3.45565">
        <ele>1305</ele>
        <time>2013-09-15T09:19:59Z</time>
      </trkpt>
      <trkpt lat="44.02023" lon="3.45572">
        <ele>1305</ele>
        <time>2013-09-15T09:20:09Z</time>
      </trkpt>
      <trkpt lat="44.02013" lon="3.45584">
        <ele>1305</ele>
        <time>2013-09-15T09:20:24Z</time>
      </trkpt>
      <trkpt lat="44.01972" lon="3.45619">
        <ele>1308</ele>
        <time>2013-09-15T09:21:03Z</time>
      </trkpt>
      <trkpt lat="44.01962" lon="3.45635">
        <ele>1307</ele>
        <time>2013-09-15T09:21:17Z</time>
      </trkpt>
      <trkpt lat="44.01947" lon="3.45644">
        <ele>1309</ele>
        <time>2013-09-15T09:21:36Z</time>
      </trkpt>
      <trkpt lat="44.01919" lon="3.45684">
        <ele>1305</ele>
        <time>2013-09-15T09:22:11Z</time>
      </trkpt>
      <trkpt lat="44.01901" lon="3.45703">
        <ele>1288</ele>
        <time>2013-09-15T09:22:45Z</time>
      </trkpt>
      <trkpt lat="44.01904" lon="3.45706">
        <ele>1284</ele>
        <time>2013-09-15T09:22:57Z</time>
      </trkpt>
      <trkpt lat="44.01908" lon="3.45706">
        <ele>1285</ele>
        <time>2013-09-15T09:23:02Z</time>
      </trkpt>
      <trkpt lat="44.01926" lon="3.45706">
        <ele>1284</ele>
        <time>2013-09-15T09:23:20Z</time>
      </trkpt>
      <trkpt lat="44.01936" lon="3.45711">
        <ele>1285</ele>
        <time>2013-09-15T09:23:32Z</time>
      </trkpt>
      <trkpt lat="44.01941" lon="3.45715">
        <ele>1286</ele>
        <time>2013-09-15T09:23:38Z</time>
      </trkpt>
      <trkpt lat="44.01946" lon="3.45725">
        <ele>1287</ele>
        <time>2013-09-15T09:23:46Z</time>
      </trkpt>
      <trkpt lat="44.01958" lon="3.45733">
        <ele>1287</ele>
        <time>2013-09-15T09:23:59Z</time>
      </trkpt>
      <trkpt lat="44.01966" lon="3.45741">
        <ele>1288</ele>
        <time>2013-09-15T09:24:09Z</time>
      </trkpt>
      <trkpt lat="44.0197" lon="3.45748">
        <ele>1286</ele>
        <time>2013-09-15T09:24:20Z</time>
      </trkpt>
      <trkpt lat="44.01972" lon="3.45761">
        <ele>1284</ele>
        <time>2013-09-15T09:24:32Z</time>
      </trkpt>
      <trkpt lat="44.01969" lon="3.45784">
        <ele>1279</ele>
        <time>2013-09-15T09:24:47Z</time>
      </trkpt>
      <trkpt lat="44.01963" lon="3.45804">
        <ele>1272</ele>
        <time>2013-09-15T09:25:04Z</time>
      </trkpt>
      <trkpt lat="44.01962" lon="3.45814">
        <ele>1271</ele>
        <time>2013-09-15T09:25:10Z</time>
      </trkpt>
      <trkpt lat="44.01964" lon="3.45832">
        <ele>1269</ele>
        <time>2013-09-15T09:25:26Z</time>
      </trkpt>
      <trkpt lat="44.01965" lon="3.45856">
        <ele>1269</ele>
        <time>2013-09-15T09:25:48Z</time>
      </trkpt>
      <trkpt lat="44.01964" lon="3.45861">
        <ele>1267</ele>
        <time>2013-09-15T09:25:53Z</time>
      </trkpt>
      <trkpt lat="44.01958" lon="3.4587">
        <ele>1265</ele>
        <time>2013-09-15T09:26:02Z</time>
      </trkpt>
      <trkpt lat="44.01951" lon="3.45879">
        <ele>1266</ele>
        <time>2013-09-15T09:26:13Z</time>
      </trkpt>
      <trkpt lat="44.0194" lon="3.45909">
        <ele>1266</ele>
        <time>2013-09-15T09:26:32Z</time>
      </trkpt>
      <trkpt lat="44.01927" lon="3.45926">
        <ele>1269</ele>
        <time>2013-09-15T09:26:53Z</time>
      </trkpt>
      <trkpt lat="44.01915" lon="3.45953">
        <ele>1272</ele>
        <time>2013-09-15T09:27:14Z</time>
      </trkpt>
      <trkpt lat="44.0191" lon="3.45958">
        <ele>1271</ele>
        <time>2013-09-15T09:27:19Z</time>
      </trkpt>
      <trkpt lat="44.019" lon="3.45966">
        <ele>1268</ele>
        <time>2013-09-15T09:27:30Z</time>
      </trkpt>
      <trkpt lat="44.01885" lon="3.45981">
        <ele>1265</ele>
        <time>2013-09-15T09:27:50Z</time>
      </trkpt>
      <trkpt lat="44.01879" lon="3.45991">
        <ele>1263</ele>
        <time>2013-09-15T09:28:01Z</time>
      </trkpt>
      <trkpt lat="44.01873" lon="3.46005">
        <ele>1262</ele>
        <time>2013-09-15T09:28:14Z</time>
      </trkpt>
      <trkpt lat="44.01865" lon="3.46018">
        <ele>1260</ele>
        <time>2013-09-15T09:28:28Z</time>
      </trkpt>
      <trkpt lat="44.01862" lon="3.46021">
        <ele>1259</ele>
        <time>2013-09-15T09:28:33Z</time>
      </trkpt>
      <trkpt lat="44.01849" lon="3.46024">
        <ele>1259</ele>
        <time>2013-09-15T09:28:44Z</time>
      </trkpt>
      <trkpt lat="44.01819" lon="3.46042">
        <ele>1251</ele>
        <time>2013-09-15T09:29:09Z</time>
      </trkpt>
      <trkpt lat="44.01791" lon="3.46048">
        <ele>1249</ele>
        <time>2013-09-15T09:29:38Z</time>
      </trkpt>
      <trkpt lat="44.01777" lon="3.46058">
        <ele>1240</ele>
        <time>2013-09-15T09:29:55Z</time>
      </trkpt>
      <trkpt lat="44.01761" lon="3.46061">
        <ele>1237</ele>
        <time>2013-09-15T09:30:09Z</time>
      </trkpt>
      <trkpt lat="44.01755" lon="3.46065">
        <ele>1235</ele>
        <time>2013-09-15T09:30:17Z</time>
      </trkpt>
      <trkpt lat="44.01738" lon="3.46055">
        <ele>1226</ele>
        <time>2013-09-15T09:30:39Z</time>
      </trkpt>
      <trkpt lat="44.01696" lon="3.46046">
        <ele>1215</ele>
        <time>2013-09-15T09:31:19Z</time>
      </trkpt>
      <trkpt lat="44.01689" lon="3.46046">
        <ele>1215</ele>
        <time>2013-09-15T09:31:26Z</time>
      </trkpt>
      <trkpt lat="44.01671" lon="3.46049">
        <ele>1214</ele>
        <time>2013-09-15T09:31:46Z</time>
      </trkpt>
      <trkpt lat="44.01651" lon="3.46056">
        <ele>1212</ele>
        <time>2013-09-15T09:32:12Z</time>
      </trkpt>
      <trkpt lat="44.01647" lon="3.4606">
        <ele>1211</ele>
        <time>2013-09-15T09:32:18Z</time>
      </trkpt>
      <trkpt lat="44.01635" lon="3.46064">
        <ele>1211</ele>
        <time>2013-09-15T09:32:30Z</time>
      </trkpt>
      <trkpt lat="44.01623" lon="3.46075">
        <ele>1211</ele>
        <time>2013-09-15T09:32:44Z</time>
      </trkpt>
      <trkpt lat="44.01615" lon="3.46085">
        <ele>1212</ele>
        <time>2013-09-15T09:32:56Z</time>
      </trkpt>
      <trkpt lat="44.01608" lon="3.46092">
        <ele>1212</ele>
        <time>2013-09-15T09:33:05Z</time>
      </trkpt>
      <trkpt lat="44.01604" lon="3.46098">
        <ele>1213</ele>
        <time>2013-09-15T09:33:09Z</time>
      </trkpt>
      <trkpt lat="44.01602" lon="3.46111">
        <ele>1212</ele>
        <time>2013-09-15T09:33:17Z</time>
      </trkpt>
      <trkpt lat="44.01606" lon="3.46129">
        <ele>1211</ele>
        <time>2013-09-15T09:33:29Z</time>
      </trkpt>
      <trkpt lat="44.01617" lon="3.46159">
        <ele>1204</ele>
        <time>2013-09-15T09:33:58Z</time>
      </trkpt>
      <trkpt lat="44.01617" lon="3.46155">
        <ele>1197</ele>
        <time>2013-09-15T09:34:16Z</time>
      </trkpt>
      <trkpt lat="44.01618" lon="3.46156">
        <ele>1196</ele>
        <time>2013-09-15T09:34:31Z</time>
      </trkpt>
      <trkpt lat="44.01618" lon="3.46154">
        <ele>1197</ele>
        <time>2013-09-15T09:34:48Z</time>
      </trkpt>
      <trkpt lat="44.01619" lon="3.46155">
        <ele>1199</ele>
        <time>2013-09-15T09:34:58Z</time>
      </trkpt>
      <trkpt lat="44.01619" lon="3.46154">
        <ele>1194</ele>
        <time>2013-09-15T09:35:13Z</time>
      </trkpt>
      <trkpt lat="44.01626" lon="3.46165">
        <ele>1198</ele>
        <time>2013-09-15T09:35:40Z</time>
      </trkpt>
      <trkpt lat="44.01628" lon="3.46181">
        <ele>1198</ele>
        <time>2013-09-15T09:35:59Z</time>
      </trkpt>
      <trkpt lat="44.01626" lon="3.46216">
        <ele>1200</ele>
        <time>2013-09-15T09:36:25Z</time>
      </trkpt>
      <trkpt lat="44.01629" lon="3.46229">
        <ele>1202</ele>
        <time>2013-09-15T09:36:35Z</time>
      </trkpt>
      <trkpt lat="44.01632" lon="3.46234">
        <ele>1202</ele>
        <time>2013-09-15T09:36:39Z</time>
      </trkpt>
      <trkpt lat="44.01639" lon="3.46239">
        <ele>1202</ele>
        <time>2013-09-15T09:36:45Z</time>
      </trkpt>
      <trkpt lat="44.01675" lon="3.46251">
        <ele>1203</ele>
        <time>2013-09-15T09:37:26Z</time>
      </trkpt>
      <trkpt lat="44.01698" lon="3.46267">
        <ele>1211</ele>
        <time>2013-09-15T09:37:53Z</time>
      </trkpt>
      <trkpt lat="44.01704" lon="3.46278">
        <ele>1213</ele>
        <time>2013-09-15T09:38:05Z</time>
      </trkpt>
      <trkpt lat="44.01711" lon="3.46306">
        <ele>1211</ele>
        <time>2013-09-15T09:38:20Z</time>
      </trkpt>
      <trkpt lat="44.01713" lon="3.46325">
        <ele>1209</ele>
        <time>2013-09-15T09:38:28Z</time>
      </trkpt>
      <trkpt lat="44.01713" lon="3.46366">
        <ele>1211</ele>
        <time>2013-09-15T09:38:54Z</time>
      </trkpt>
      <trkpt lat="44.01711" lon="3.46377">
        <ele>1212</ele>
        <time>2013-09-15T09:39:02Z</time>
      </trkpt>
      <trkpt lat="44.017" lon="3.46413">
        <ele>1215</ele>
        <time>2013-09-15T09:39:26Z</time>
      </trkpt>
      <trkpt lat="44.01693" lon="3.46442">
        <ele>1215</ele>
        <time>2013-09-15T09:39:43Z</time>
      </trkpt>
      <trkpt lat="44.0169" lon="3.46457">
        <ele>1217</ele>
        <time>2013-09-15T09:39:51Z</time>
      </trkpt>
      <trkpt lat="44.01695" lon="3.46501">
        <ele>1214</ele>
        <time>2013-09-15T09:40:18Z</time>
      </trkpt>
      <trkpt lat="44.01693" lon="3.46521">
        <ele>1213</ele>
        <time>2013-09-15T09:40:29Z</time>
      </trkpt>
      <trkpt lat="44.01693" lon="3.46567">
        <ele>1211</ele>
        <time>2013-09-15T09:40:54Z</time>
      </trkpt>
      <trkpt lat="44.01694" lon="3.46587">
        <ele>1211</ele>
        <time>2013-09-15T09:41:05Z</time>
      </trkpt>
      <trkpt lat="44.01701" lon="3.46623">
        <ele>1208</ele>
        <time>2013-09-15T09:41:25Z</time>
      </trkpt>
      <trkpt lat="44.01721" lon="3.4667">
        <ele>1215</ele>
        <time>2013-09-15T09:42:03Z</time>
      </trkpt>
      <trkpt lat="44.01719" lon="3.46693">
        <ele>1218</ele>
        <time>2013-09-15T09:42:24Z</time>
      </trkpt>
      <trkpt lat="44.01716" lon="3.46706">
        <ele>1219</ele>
        <time>2013-09-15T09:42:37Z</time>
      </trkpt>
      <trkpt lat="44.01709" lon="3.46716">
        <ele>1221</ele>
        <time>2013-09-15T09:42:50Z</time>
      </trkpt>
      <trkpt lat="44.01697" lon="3.46737">
        <ele>1223</ele>
        <time>2013-09-15T09:43:04Z</time>
      </trkpt>
      <trkpt lat="44.0169" lon="3.46743">
        <ele>1223</ele>
        <time>2013-09-15T09:43:09Z</time>
      </trkpt>
      <trkpt lat="44.01682" lon="3.46747">
        <ele>1223</ele>
        <time>2013-09-15T09:43:15Z</time>
      </trkpt>
      <trkpt lat="44.01675" lon="3.46756">
        <ele>1226</ele>
        <time>2013-09-15T09:43:23Z</time>
      </trkpt>
      <trkpt lat="44.01656" lon="3.46782">
        <ele>1227</ele>
        <time>2013-09-15T09:43:50Z</time>
      </trkpt>
      <trkpt lat="44.01635" lon="3.46794">
        <ele>1229</ele>
        <time>2013-09-15T09:44:09Z</time>
      </trkpt>
      <trkpt lat="44.01626" lon="3.46804">
        <ele>1229</ele>
        <time>2013-09-15T09:44:19Z</time>
      </trkpt>
      <trkpt lat="44.01619" lon="3.46821">
        <ele>1230</ele>
        <time>2013-09-15T09:44:33Z</time>
      </trkpt>
      <trkpt lat="44.01609" lon="3.46841">
        <ele>1232</ele>
        <time>2013-09-15T09:44:47Z</time>
      </trkpt>
      <trkpt lat="44.01587" lon="3.46889">
        <ele>1232</ele>
        <time>2013-09-15T09:45:25Z</time>
      </trkpt>
      <trkpt lat="44.01563" lon="3.46934">
        <ele>1236</ele>
        <time>2013-09-15T09:46:04Z</time>
      </trkpt>
      <trkpt lat="44.01525" lon="3.46972">
        <ele>1237</ele>
        <time>2013-09-15T09:46:41Z</time>
      </trkpt>
      <trkpt lat="44.0151" lon="3.46992">
        <ele>1235</ele>
        <time>2013-09-15T09:46:57Z</time>
      </trkpt>
      <trkpt lat="44.01501" lon="3.47009">
        <ele>1235</ele>
        <time>2013-09-15T09:47:15Z</time>
      </trkpt>
      <trkpt lat="44.01482" lon="3.47071">
        <ele>1236</ele>
        <time>2013-09-15T09:47:57Z</time>
      </trkpt>
      <trkpt lat="44.01465" lon="3.47108">
        <ele>1238</ele>
        <time>2013-09-15T09:48:24Z</time>
      </trkpt>
      <trkpt lat="44.01455" lon="3.47152">
        <ele>1237</ele>
        <time>2013-09-15T09:48:57Z</time>
      </trkpt>
      <trkpt lat="44.01447" lon="3.47177">
        <ele>1238</ele>
        <time>2013-09-15T09:49:15Z</time>
      </trkpt>
      <trkpt lat="44.01433" lon="3.47203">
        <ele>1238</ele>
        <time>2013-09-15T09:49:33Z</time>
      </trkpt>
      <trkpt lat="44.01429" lon="3.47221">
        <ele>1237</ele>
        <time>2013-09-15T09:49:45Z</time>
      </trkpt>
      <trkpt lat="44.01426" lon="3.4725">
        <ele>1233</ele>
        <time>2013-09-15T09:50:04Z</time>
      </trkpt>
      <trkpt lat="44.01427" lon="3.4728">
        <ele>1231</ele>
        <time>2013-09-15T09:50:23Z</time>
      </trkpt>
      <trkpt lat="44.01431" lon="3.47291">
        <ele>1230</ele>
        <time>2013-09-15T09:50:32Z</time>
      </trkpt>
      <trkpt lat="44.01442" lon="3.47301">
        <ele>1230</ele>
        <time>2013-09-15T09:50:44Z</time>
      </trkpt>
      <trkpt lat="44.01451" lon="3.47306">
        <ele>1229</ele>
        <time>2013-09-15T09:50:53Z</time>
      </trkpt>
      <trkpt lat="44.01467" lon="3.47317">
        <ele>1233</ele>
        <time>2013-09-15T09:51:23Z</time>
      </trkpt>
      <trkpt lat="44.01462" lon="3.47321">
        <ele>1228</ele>
        <time>2013-09-15T09:52:38Z</time>
      </trkpt>
      <trkpt lat="44.01466" lon="3.47331">
        <ele>1225</ele>
        <time>2013-09-15T09:53:09Z</time>
      </trkpt>
      <trkpt lat="44.01468" lon="3.47328">
        <ele>1226</ele>
        <time>2013-09-15T09:53:50Z</time>
      </trkpt>
      <trkpt lat="44.01475" lon="3.47333">
        <ele>1228</ele>
        <time>2013-09-15T09:54:02Z</time>
      </trkpt>
      <trkpt lat="44.01479" lon="3.47345">
        <ele>1231</ele>
        <time>2013-09-15T09:54:13Z</time>
      </trkpt>
      <trkpt lat="44.01482" lon="3.4739">
        <ele>1237</ele>
        <time>2013-09-15T09:54:45Z</time>
      </trkpt>
      <trkpt lat="44.0148" lon="3.47419">
        <ele>1243</ele>
        <time>2013-09-15T09:55:06Z</time>
      </trkpt>
      <trkpt lat="44.01472" lon="3.47432">
        <ele>1245</ele>
        <time>2013-09-15T09:55:41Z</time>
      </trkpt>
      <trkpt lat="44.01467" lon="3.47445">
        <ele>1246</ele>
        <time>2013-09-15T09:55:48Z</time>
      </trkpt>
      <trkpt lat="44.01445" lon="3.4748">
        <ele>1249</ele>
        <time>2013-09-15T09:56:14Z</time>
      </trkpt>
      <trkpt lat="44.01432" lon="3.47518">
        <ele>1250</ele>
        <time>2013-09-15T09:56:39Z</time>
      </trkpt>
      <trkpt lat="44.01421" lon="3.47534">
        <ele>1250</ele>
        <time>2013-09-15T09:56:55Z</time>
      </trkpt>
      <trkpt lat="44.01395" lon="3.47591">
        <ele>1257</ele>
        <time>2013-09-15T09:57:33Z</time>
      </trkpt>
      <trkpt lat="44.01354" lon="3.47651">
        <ele>1261</ele>
        <time>2013-09-15T09:58:21Z</time>
      </trkpt>
      <trkpt lat="44.0135" lon="3.47661">
        <ele>1261</ele>
        <time>2013-09-15T09:58:27Z</time>
      </trkpt>
      <trkpt lat="44.01351" lon="3.47673">
        <ele>1261</ele>
        <time>2013-09-15T09:58:33Z</time>
      </trkpt>
      <trkpt lat="44.01354" lon="3.47682">
        <ele>1259</ele>
        <time>2013-09-15T09:58:39Z</time>
      </trkpt>
      <trkpt lat="44.01362" lon="3.47691">
        <ele>1256</ele>
        <time>2013-09-15T09:58:47Z</time>
      </trkpt>
      <trkpt lat="44.01381" lon="3.47704">
        <ele>1251</ele>
        <time>2013-09-15T09:59:02Z</time>
      </trkpt>
      <trkpt lat="44.01389" lon="3.47709">
        <ele>1250</ele>
        <time>2013-09-15T09:59:09Z</time>
      </trkpt>
      <trkpt lat="44.01397" lon="3.47716">
        <ele>1248</ele>
        <time>2013-09-15T09:59:16Z</time>
      </trkpt>
      <trkpt lat="44.01414" lon="3.47748">
        <ele>1246</ele>
        <time>2013-09-15T09:59:38Z</time>
      </trkpt>
      <trkpt lat="44.01425" lon="3.47774">
        <ele>1246</ele>
        <time>2013-09-15T09:59:56Z</time>
      </trkpt>
      <trkpt lat="44.0143" lon="3.4778">
        <ele>1246</ele>
        <time>2013-09-15T10:00:01Z</time>
      </trkpt>
      <trkpt lat="44.01448" lon="3.47794">
        <ele>1245</ele>
        <time>2013-09-15T10:00:19Z</time>
      </trkpt>
      <trkpt lat="44.0149" lon="3.47815">
        <ele>1245</ele>
        <time>2013-09-15T10:00:56Z</time>
      </trkpt>
      <trkpt lat="44.01512" lon="3.47829">
        <ele>1247</ele>
        <time>2013-09-15T10:01:18Z</time>
      </trkpt>
      <trkpt lat="44.01549" lon="3.47851">
        <ele>1249</ele>
        <time>2013-09-15T10:01:53Z</time>
      </trkpt>
      <trkpt lat="44.01554" lon="3.47856">
        <ele>1249</ele>
        <time>2013-09-15T10:02:00Z</time>
      </trkpt>
      <trkpt lat="44.01565" lon="3.47874">
        <ele>1249</ele>
        <time>2013-09-15T10:02:15Z</time>
      </trkpt>
      <trkpt lat="44.01576" lon="3.47884">
        <ele>1249</ele>
        <time>2013-09-15T10:02:25Z</time>
      </trkpt>
      <trkpt lat="44.01592" lon="3.47895">
        <ele>1249</ele>
        <time>2013-09-15T10:02:40Z</time>
      </trkpt>
      <trkpt lat="44.0162" lon="3.47909">
        <ele>1248</ele>
        <time>2013-09-15T10:03:05Z</time>
      </trkpt>
      <trkpt lat="44.0165" lon="3.4792">
        <ele>1250</ele>
        <time>2013-09-15T10:03:33Z</time>
      </trkpt>
      <trkpt lat="44.01684" lon="3.47929">
        <ele>1252</ele>
        <time>2013-09-15T10:04:05Z</time>
      </trkpt>
      <trkpt lat="44.01713" lon="3.47928">
        <ele>1255</ele>
        <time>2013-09-15T10:04:30Z</time>
      </trkpt>
      <trkpt lat="44.01746" lon="3.47931">
        <ele>1257</ele>
        <time>2013-09-15T10:04:59Z</time>
      </trkpt>
      <trkpt lat="44.01756" lon="3.47929">
        <ele>1257</ele>
        <time>2013-09-15T10:05:08Z</time>
      </trkpt>
      <trkpt lat="44.0177" lon="3.47923">
        <ele>1257</ele>
        <time>2013-09-15T10:05:21Z</time>
      </trkpt>
      <trkpt lat="44.01785" lon="3.47913">
        <ele>1257</ele>
        <time>2013-09-15T10:05:35Z</time>
      </trkpt>
      <trkpt lat="44.01805" lon="3.47904">
        <ele>1257</ele>
        <time>2013-09-15T10:05:55Z</time>
      </trkpt>
      <trkpt lat="44.01815" lon="3.47902">
        <ele>1258</ele>
        <time>2013-09-15T10:06:05Z</time>
      </trkpt>
      <trkpt lat="44.0182" lon="3.47905">
        <ele>1258</ele>
        <time>2013-09-15T10:06:11Z</time>
      </trkpt>
      <trkpt lat="44.01827" lon="3.47917">
        <ele>1259</ele>
        <time>2013-09-15T10:06:22Z</time>
      </trkpt>
      <trkpt lat="44.0183" lon="3.47939">
        <ele>1261</ele>
        <time>2013-09-15T10:06:36Z</time>
      </trkpt>
      <trkpt lat="44.01824" lon="3.48031">
        <ele>1266</ele>
        <time>2013-09-15T10:07:34Z</time>
      </trkpt>
      <trkpt lat="44.01826" lon="3.48052">
        <ele>1267</ele>
        <time>2013-09-15T10:07:48Z</time>
      </trkpt>
      <trkpt lat="44.01834" lon="3.48067">
        <ele>1267</ele>
        <time>2013-09-15T10:08:00Z</time>
      </trkpt>
      <trkpt lat="44.01854" lon="3.48083">
        <ele>1267</ele>
        <time>2013-09-15T10:08:21Z</time>
      </trkpt>
      <trkpt lat="44.0187" lon="3.48105">
        <ele>1269</ele>
        <time>2013-09-15T10:08:44Z</time>
      </trkpt>
      <trkpt lat="44.01881" lon="3.48113">
        <ele>1271</ele>
        <time>2013-09-15T10:08:55Z</time>
      </trkpt>
      <trkpt lat="44.01893" lon="3.48118">
        <ele>1272</ele>
        <time>2013-09-15T10:09:06Z</time>
      </trkpt>
      <trkpt lat="44.01929" lon="3.4812">
        <ele>1271</ele>
        <time>2013-09-15T10:09:39Z</time>
      </trkpt>
      <trkpt lat="44.01944" lon="3.48122">
        <ele>1272</ele>
        <time>2013-09-15T10:09:54Z</time>
      </trkpt>
      <trkpt lat="44.01958" lon="3.48129">
        <ele>1275</ele>
        <time>2013-09-15T10:10:08Z</time>
      </trkpt>
      <trkpt lat="44.01976" lon="3.48143">
        <ele>1278</ele>
        <time>2013-09-15T10:10:27Z</time>
      </trkpt>
      <trkpt lat="44.01987" lon="3.48149">
        <ele>1280</ele>
        <time>2013-09-15T10:10:37Z</time>
      </trkpt>
      <trkpt lat="44.02021" lon="3.48154">
        <ele>1284</ele>
        <time>2013-09-15T10:11:07Z</time>
      </trkpt>
      <trkpt lat="44.02043" lon="3.48159">
        <ele>1286</ele>
        <time>2013-09-15T10:11:27Z</time>
      </trkpt>
      <trkpt lat="44.0208" lon="3.48148">
        <ele>1288</ele>
        <time>2013-09-15T10:12:00Z</time>
      </trkpt>
      <trkpt lat="44.02103" lon="3.48143">
        <ele>1290</ele>
        <time>2013-09-15T10:12:21Z</time>
      </trkpt>
      <trkpt lat="44.02122" lon="3.48136">
        <ele>1287</ele>
        <time>2013-09-15T10:12:38Z</time>
      </trkpt>
      <trkpt lat="44.02148" lon="3.48131">
        <ele>1281</ele>
        <time>2013-09-15T10:13:00Z</time>
      </trkpt>
      <trkpt lat="44.02183" lon="3.48116">
        <ele>1282</ele>
        <time>2013-09-15T10:13:33Z</time>
      </trkpt>
      <trkpt lat="44.02212" lon="3.48101">
        <ele>1286</ele>
        <time>2013-09-15T10:14:05Z</time>
      </trkpt>
      <trkpt lat="44.02239" lon="3.48091">
        <ele>1288</ele>
        <time>2013-09-15T10:14:32Z</time>
      </trkpt>
      <trkpt lat="44.02266" lon="3.48076">
        <ele>1294</ele>
        <time>2013-09-15T10:15:01Z</time>
      </trkpt>
      <trkpt lat="44.02301" lon="3.48063">
        <ele>1296</ele>
        <time>2013-09-15T10:15:34Z</time>
      </trkpt>
      <trkpt lat="44.02325" lon="3.48049">
        <ele>1297</ele>
        <time>2013-09-15T10:16:00Z</time>
      </trkpt>
      <trkpt lat="44.0234" lon="3.48042">
        <ele>1297</ele>
        <time>2013-09-15T10:16:16Z</time>
      </trkpt>
      <trkpt lat="44.02368" lon="3.48036">
        <ele>1303</ele>
        <time>2013-09-15T10:16:39Z</time>
      </trkpt>
      <trkpt lat="44.02387" lon="3.48034">
        <ele>1306</ele>
        <time>2013-09-15T10:16:56Z</time>
      </trkpt>
      <trkpt lat="44.02399" lon="3.48031">
        <ele>1308</ele>
        <time>2013-09-15T10:17:07Z</time>
      </trkpt>
      <trkpt lat="44.02415" lon="3.48032">
        <ele>1310</ele>
        <time>2013-09-15T10:17:21Z</time>
      </trkpt>
      <trkpt lat="44.02425" lon="3.48035">
        <ele>1311</ele>
        <time>2013-09-15T10:17:29Z</time>
      </trkpt>
      <trkpt lat="44.02485" lon="3.48084">
        <ele>1320</ele>
        <time>2013-09-15T10:18:36Z</time>
      </trkpt>
      <trkpt lat="44.02496" lon="3.481">
        <ele>1321</ele>
        <time>2013-09-15T10:18:52Z</time>
      </trkpt>
      <trkpt lat="44.02511" lon="3.48128">
        <ele>1322</ele>
        <time>2013-09-15T10:19:12Z</time>
      </trkpt>
      <trkpt lat="44.02517" lon="3.48136">
        <ele>1323</ele>
        <time>2013-09-15T10:19:19Z</time>
      </trkpt>
      <trkpt lat="44.0253" lon="3.48143">
        <ele>1325</ele>
        <time>2013-09-15T10:19:31Z</time>
      </trkpt>
      <trkpt lat="44.02542" lon="3.48146">
        <ele>1327</ele>
        <time>2013-09-15T10:19:42Z</time>
      </trkpt>
      <trkpt lat="44.02556" lon="3.48147">
        <ele>1327</ele>
        <time>2013-09-15T10:19:55Z</time>
      </trkpt>
      <trkpt lat="44.0257" lon="3.48153">
        <ele>1327</ele>
        <time>2013-09-15T10:20:07Z</time>
      </trkpt>
      <trkpt lat="44.02579" lon="3.48162">
        <ele>1329</ele>
        <time>2013-09-15T10:20:18Z</time>
      </trkpt>
      <trkpt lat="44.02604" lon="3.48198">
        <ele>1335</ele>
        <time>2013-09-15T10:20:53Z</time>
      </trkpt>
      <trkpt lat="44.02653" lon="3.48234">
        <ele>1339</ele>
        <time>2013-09-15T10:21:42Z</time>
      </trkpt>
      <trkpt lat="44.02667" lon="3.48246">
        <ele>1340</ele>
        <time>2013-09-15T10:21:56Z</time>
      </trkpt>
      <trkpt lat="44.02674" lon="3.48254">
        <ele>1342</ele>
        <time>2013-09-15T10:22:04Z</time>
      </trkpt>
      <trkpt lat="44.0269" lon="3.48278">
        <ele>1345</ele>
        <time>2013-09-15T10:22:28Z</time>
      </trkpt>
      <trkpt lat="44.02701" lon="3.48297">
        <ele>1347</ele>
        <time>2013-09-15T10:22:44Z</time>
      </trkpt>
      <trkpt lat="44.02714" lon="3.4833">
        <ele>1349</ele>
        <time>2013-09-15T10:23:08Z</time>
      </trkpt>
      <trkpt lat="44.02715" lon="3.4835">
        <ele>1351</ele>
        <time>2013-09-15T10:23:20Z</time>
      </trkpt>
      <trkpt lat="44.0271" lon="3.48367">
        <ele>1350</ele>
        <time>2013-09-15T10:23:31Z</time>
      </trkpt>
      <trkpt lat="44.02709" lon="3.48376">
        <ele>1351</ele>
        <time>2013-09-15T10:23:37Z</time>
      </trkpt>
      <trkpt lat="44.02711" lon="3.48384">
        <ele>1352</ele>
        <time>2013-09-15T10:23:42Z</time>
      </trkpt>
      <trkpt lat="44.02725" lon="3.48405">
        <ele>1353</ele>
        <time>2013-09-15T10:24:00Z</time>
      </trkpt>
      <trkpt lat="44.0274" lon="3.48422">
        <ele>1353</ele>
        <time>2013-09-15T10:24:18Z</time>
      </trkpt>
      <trkpt lat="44.02764" lon="3.48444">
        <ele>1355</ele>
        <time>2013-09-15T10:24:45Z</time>
      </trkpt>
      <trkpt lat="44.028" lon="3.48482">
        <ele>1360</ele>
        <time>2013-09-15T10:25:26Z</time>
      </trkpt>
      <trkpt lat="44.02811" lon="3.48491">
        <ele>1361</ele>
        <time>2013-09-15T10:25:39Z</time>
      </trkpt>
      <trkpt lat="44.02821" lon="3.48497">
        <ele>1360</ele>
        <time>2013-09-15T10:25:48Z</time>
      </trkpt>
      <trkpt lat="44.02845" lon="3.48516">
        <ele>1361</ele>
        <time>2013-09-15T10:26:15Z</time>
      </trkpt>
      <trkpt lat="44.02866" lon="3.48526">
        <ele>1364</ele>
        <time>2013-09-15T10:26:37Z</time>
      </trkpt>
      <trkpt lat="44.02892" lon="3.48532">
        <ele>1365</ele>
        <time>2013-09-15T10:27:04Z</time>
      </trkpt>
      <trkpt lat="44.02894" lon="3.48545">
        <ele>1364</ele>
        <time>2013-09-15T10:27:36Z</time>
      </trkpt>
      <trkpt lat="44.02927" lon="3.48525">
        <ele>1286</ele>
        <time>2013-09-15T10:32:57Z</time>
      </trkpt>
      <trkpt lat="44.02944" lon="3.48559">
        <ele>1287</ele>
        <time>2013-09-15T10:34:04Z</time>
      </trkpt>
      <trkpt lat="44.02958" lon="3.48569">
        <ele>1290</ele>
        <time>2013-09-15T10:34:17Z</time>
      </trkpt>
      <trkpt lat="44.02967" lon="3.4858">
        <ele>1284</ele>
        <time>2013-09-15T10:35:59Z</time>
      </trkpt>
      <trkpt lat="44.02976" lon="3.48585">
        <ele>1285</ele>
        <time>2013-09-15T10:36:15Z</time>
      </trkpt>
      <trkpt lat="44.02985" lon="3.48588">
        <ele>1286</ele>
        <time>2013-09-15T10:37:00Z</time>
      </trkpt>
      <trkpt lat="44.02995" lon="3.48587">
        <ele>1288</ele>
        <time>2013-09-15T10:37:48Z</time>
      </trkpt>
      <trkpt lat="44.02989" lon="3.48576">
        <ele>1295</ele>
        <time>2013-09-15T10:38:49Z</time>
      </trkpt>
      <trkpt lat="44.02957" lon="3.48608">
        <ele>1303</ele>
        <time>2013-09-15T11:09:34Z</time>
      </trkpt>
      <trkpt lat="44.02948" lon="3.48625">
        <ele>1302</ele>
        <time>2013-09-15T11:09:54Z</time>
      </trkpt>
      <trkpt lat="44.02937" lon="3.48662">
        <ele>1309</ele>
        <time>2013-09-15T11:10:16Z</time>
      </trkpt>
      <trkpt lat="44.02934" lon="3.48675">
        <ele>1308</ele>
        <time>2013-09-15T11:10:23Z</time>
      </trkpt>
      <trkpt lat="44.0293" lon="3.48713">
        <ele>1309</ele>
        <time>2013-09-15T11:10:47Z</time>
      </trkpt>
      <trkpt lat="44.02942" lon="3.48726">
        <ele>1313</ele>
        <time>2013-09-15T11:11:26Z</time>
      </trkpt>
      <trkpt lat="44.02951" lon="3.48731">
        <ele>1315</ele>
        <time>2013-09-15T11:11:58Z</time>
      </trkpt>
      <trkpt lat="44.02971" lon="3.48757">
        <ele>1317</ele>
        <time>2013-09-15T11:12:59Z</time>
      </trkpt>
      <trkpt lat="44.02984" lon="3.48791">
        <ele>1318</ele>
        <time>2013-09-15T11:13:36Z</time>
      </trkpt>
      <trkpt lat="44.03012" lon="3.48813">
        <ele>1316</ele>
        <time>2013-09-15T11:14:25Z</time>
      </trkpt>
      <trkpt lat="44.03026" lon="3.48845">
        <ele>1309</ele>
        <time>2013-09-15T11:15:15Z</time>
      </trkpt>
      <trkpt lat="44.03053" lon="3.4886">
        <ele>1313</ele>
        <time>2013-09-15T11:15:28Z</time>
      </trkpt>
      <trkpt lat="44.03072" lon="3.48862">
        <ele>1322</ele>
        <time>2013-09-15T11:15:36Z</time>
      </trkpt>
      <trkpt lat="44.03087" lon="3.48893">
        <ele>1328</ele>
        <time>2013-09-15T11:16:25Z</time>
      </trkpt>
      <trkpt lat="44.03113" lon="3.48907">
        <ele>1332</ele>
        <time>2013-09-15T11:17:05Z</time>
      </trkpt>
      <trkpt lat="44.03157" lon="3.48896">
        <ele>1336</ele>
        <time>2013-09-15T11:17:37Z</time>
      </trkpt>
      <trkpt lat="44.03168" lon="3.48897">
        <ele>1335</ele>
        <time>2013-09-15T11:17:47Z</time>
      </trkpt>
      <trkpt lat="44.03176" lon="3.48903">
        <ele>1338</ele>
        <time>2013-09-15T11:17:57Z</time>
      </trkpt>
      <trkpt lat="44.03175" lon="3.48941">
        <ele>1340</ele>
        <time>2013-09-15T11:18:28Z</time>
      </trkpt>
      <trkpt lat="44.03184" lon="3.48977">
        <ele>1339</ele>
        <time>2013-09-15T11:19:04Z</time>
      </trkpt>
      <trkpt lat="44.03205" lon="3.49003">
        <ele>1338</ele>
        <time>2013-09-15T11:19:40Z</time>
      </trkpt>
      <trkpt lat="44.03231" lon="3.49015">
        <ele>1337</ele>
        <time>2013-09-15T11:20:03Z</time>
      </trkpt>
      <trkpt lat="44.03282" lon="3.49043">
        <ele>1334</ele>
        <time>2013-09-15T11:20:59Z</time>
      </trkpt>
      <trkpt lat="44.03311" lon="3.49084">
        <ele>1330</ele>
        <time>2013-09-15T11:21:57Z</time>
      </trkpt>
      <trkpt lat="44.03334" lon="3.49106">
        <ele>1328</ele>
        <time>2013-09-15T11:22:15Z</time>
      </trkpt>
      <trkpt lat="44.03351" lon="3.49139">
        <ele>1327</ele>
        <time>2013-09-15T11:22:37Z</time>
      </trkpt>
      <trkpt lat="44.03366" lon="3.49171">
        <ele>1327</ele>
        <time>2013-09-15T11:23:02Z</time>
      </trkpt>
      <trkpt lat="44.03387" lon="3.49195">
        <ele>1328</ele>
        <time>2013-09-15T11:23:28Z</time>
      </trkpt>
      <trkpt lat="44.03402" lon="3.49227">
        <ele>1327</ele>
        <time>2013-09-15T11:23:52Z</time>
      </trkpt>
      <trkpt lat="44.03409" lon="3.49264">
        <ele>1326</ele>
        <time>2013-09-15T11:24:20Z</time>
      </trkpt>
      <trkpt lat="44.03443" lon="3.49406">
        <ele>1330</ele>
        <time>2013-09-15T11:26:01Z</time>
      </trkpt>
      <trkpt lat="44.03464" lon="3.49504">
        <ele>1336</ele>
        <time>2013-09-15T11:27:01Z</time>
      </trkpt>
      <trkpt lat="44.03486" lon="3.49527">
        <ele>1340</ele>
        <time>2013-09-15T11:27:22Z</time>
      </trkpt>
      <trkpt lat="44.03529" lon="3.4953">
        <ele>1345</ele>
        <time>2013-09-15T11:27:29Z</time>
      </trkpt>
      <trkpt lat="44.03538" lon="3.49533">
        <ele>1347</ele>
        <time>2013-09-15T11:27:32Z</time>
      </trkpt>
      <trkpt lat="44.03549" lon="3.4954">
        <ele>1351</ele>
        <time>2013-09-15T11:27:40Z</time>
      </trkpt>
      <trkpt lat="44.03556" lon="3.49556">
        <ele>1353</ele>
        <time>2013-09-15T11:27:52Z</time>
      </trkpt>
      <trkpt lat="44.03574" lon="3.4961">
        <ele>1362</ele>
        <time>2013-09-15T11:28:28Z</time>
      </trkpt>
      <trkpt lat="44.03583" lon="3.49618">
        <ele>1363</ele>
        <time>2013-09-15T11:28:38Z</time>
      </trkpt>
      <trkpt lat="44.03597" lon="3.49622">
        <ele>1364</ele>
        <time>2013-09-15T11:28:52Z</time>
      </trkpt>
      <trkpt lat="44.03609" lon="3.49656">
        <ele>1362</ele>
        <time>2013-09-15T11:29:37Z</time>
      </trkpt>
      <trkpt lat="44.03618" lon="3.49692">
        <ele>1365</ele>
        <time>2013-09-15T11:30:10Z</time>
      </trkpt>
      <trkpt lat="44.03632" lon="3.49725">
        <ele>1363</ele>
        <time>2013-09-15T11:30:33Z</time>
      </trkpt>
      <trkpt lat="44.03655" lon="3.49745">
        <ele>1365</ele>
        <time>2013-09-15T11:31:04Z</time>
      </trkpt>
      <trkpt lat="44.03664" lon="3.4978">
        <ele>1366</ele>
        <time>2013-09-15T11:31:42Z</time>
      </trkpt>
      <trkpt lat="44.03678" lon="3.49815">
        <ele>1365</ele>
        <time>2013-09-15T11:32:14Z</time>
      </trkpt>
      <trkpt lat="44.03699" lon="3.49849">
        <ele>1368</ele>
        <time>2013-09-15T11:32:39Z</time>
      </trkpt>
      <trkpt lat="44.03705" lon="3.49861">
        <ele>1366</ele>
        <time>2013-09-15T11:32:49Z</time>
      </trkpt>
      <trkpt lat="44.03725" lon="3.49888">
        <ele>1360</ele>
        <time>2013-09-15T11:33:29Z</time>
      </trkpt>
      <trkpt lat="44.03758" lon="3.4995">
        <ele>1360</ele>
        <time>2013-09-15T11:34:13Z</time>
      </trkpt>
      <trkpt lat="44.03783" lon="3.4997">
        <ele>1361</ele>
        <time>2013-09-15T11:34:42Z</time>
      </trkpt>
      <trkpt lat="44.03803" lon="3.49997">
        <ele>1363</ele>
        <time>2013-09-15T11:35:11Z</time>
      </trkpt>
      <trkpt lat="44.03806" lon="3.50009">
        <ele>1362</ele>
        <time>2013-09-15T11:35:17Z</time>
      </trkpt>
      <trkpt lat="44.03812" lon="3.50018">
        <ele>1361</ele>
        <time>2013-09-15T11:35:26Z</time>
      </trkpt>
      <trkpt lat="44.03831" lon="3.5003">
        <ele>1357</ele>
        <time>2013-09-15T11:35:43Z</time>
      </trkpt>
      <trkpt lat="44.03856" lon="3.50058">
        <ele>1343</ele>
        <time>2013-09-15T11:36:15Z</time>
      </trkpt>
      <trkpt lat="44.03873" lon="3.50072">
        <ele>1342</ele>
        <time>2013-09-15T11:36:41Z</time>
      </trkpt>
      <trkpt lat="44.03884" lon="3.50079">
        <ele>1341</ele>
        <time>2013-09-15T11:36:56Z</time>
      </trkpt>
      <trkpt lat="44.0389" lon="3.50102">
        <ele>1339</ele>
        <time>2013-09-15T11:37:23Z</time>
      </trkpt>
      <trkpt lat="44.03892" lon="3.50134">
        <ele>1335</ele>
        <time>2013-09-15T11:37:53Z</time>
      </trkpt>
      <trkpt lat="44.03895" lon="3.50146">
        <ele>1334</ele>
        <time>2013-09-15T11:38:05Z</time>
      </trkpt>
      <trkpt lat="44.03909" lon="3.50178">
        <ele>1330</ele>
        <time>2013-09-15T11:39:59Z</time>
      </trkpt>
      <trkpt lat="44.03928" lon="3.50208">
        <ele>1330</ele>
        <time>2013-09-15T11:41:04Z</time>
      </trkpt>
      <trkpt lat="44.0393" lon="3.5026">
        <ele>1325</ele>
        <time>2013-09-15T11:41:43Z</time>
      </trkpt>
      <trkpt lat="44.03935" lon="3.50287">
        <ele>1321</ele>
        <time>2013-09-15T11:42:08Z</time>
      </trkpt>
      <trkpt lat="44.0395" lon="3.50319">
        <ele>1316</ele>
        <time>2013-09-15T11:42:40Z</time>
      </trkpt>
      <trkpt lat="44.03957" lon="3.50339">
        <ele>1316</ele>
        <time>2013-09-15T11:42:54Z</time>
      </trkpt>
      <trkpt lat="44.03966" lon="3.50345">
        <ele>1311</ele>
        <time>2013-09-15T11:43:07Z</time>
      </trkpt>
      <trkpt lat="44.03977" lon="3.50366">
        <ele>1307</ele>
        <time>2013-09-15T11:43:29Z</time>
      </trkpt>
      <trkpt lat="44.03984" lon="3.50374">
        <ele>1308</ele>
        <time>2013-09-15T11:43:39Z</time>
      </trkpt>
      <trkpt lat="44.03991" lon="3.50385">
        <ele>1307</ele>
        <time>2013-09-15T11:43:54Z</time>
      </trkpt>
      <trkpt lat="44.03987" lon="3.50425">
        <ele>1303</ele>
        <time>2013-09-15T11:44:47Z</time>
      </trkpt>
      <trkpt lat="44.03987" lon="3.50451">
        <ele>1302</ele>
        <time>2013-09-15T11:44:58Z</time>
      </trkpt>
      <trkpt lat="44.04005" lon="3.50495">
        <ele>1300</ele>
        <time>2013-09-15T11:45:40Z</time>
      </trkpt>
      <trkpt lat="44.04002" lon="3.50508">
        <ele>1298</ele>
        <time>2013-09-15T11:45:50Z</time>
      </trkpt>
      <trkpt lat="44.03989" lon="3.50535">
        <ele>1294</ele>
        <time>2013-09-15T11:46:11Z</time>
      </trkpt>
      <trkpt lat="44.03986" lon="3.50543">
        <ele>1293</ele>
        <time>2013-09-15T11:46:17Z</time>
      </trkpt>
      <trkpt lat="44.03986" lon="3.50576">
        <ele>1288</ele>
        <time>2013-09-15T11:46:37Z</time>
      </trkpt>
      <trkpt lat="44.03991" lon="3.50601">
        <ele>1286</ele>
        <time>2013-09-15T11:46:52Z</time>
      </trkpt>
      <trkpt lat="44.03989" lon="3.50609">
        <ele>1285</ele>
        <time>2013-09-15T11:46:58Z</time>
      </trkpt>
      <trkpt lat="44.03978" lon="3.50616">
        <ele>1271</ele>
        <time>2013-09-15T11:47:21Z</time>
      </trkpt>
      <trkpt lat="44.03973" lon="3.50618">
        <ele>1269</ele>
        <time>2013-09-15T11:47:30Z</time>
      </trkpt>
      <trkpt lat="44.03969" lon="3.50615">
        <ele>1268</ele>
        <time>2013-09-15T11:47:36Z</time>
      </trkpt>
      <trkpt lat="44.03958" lon="3.50604">
        <ele>1265</ele>
        <time>2013-09-15T11:47:48Z</time>
      </trkpt>
      <trkpt lat="44.03951" lon="3.50601">
        <ele>1265</ele>
        <time>2013-09-15T11:47:55Z</time>
      </trkpt>
      <trkpt lat="44.03946" lon="3.50601">
        <ele>1265</ele>
        <time>2013-09-15T11:48:00Z</time>
      </trkpt>
      <trkpt lat="44.03936" lon="3.50605">
        <ele>1263</ele>
        <time>2013-09-15T11:48:09Z</time>
      </trkpt>
      <trkpt lat="44.03925" lon="3.50612">
        <ele>1259</ele>
        <time>2013-09-15T11:48:26Z</time>
      </trkpt>
      <trkpt lat="44.03907" lon="3.50615">
        <ele>1256</ele>
        <time>2013-09-15T11:48:55Z</time>
      </trkpt>
      <trkpt lat="44.03897" lon="3.50622">
        <ele>1251</ele>
        <time>2013-09-15T11:49:06Z</time>
      </trkpt>
      <trkpt lat="44.03887" lon="3.50635">
        <ele>1256</ele>
        <time>2013-09-15T11:49:20Z</time>
      </trkpt>
      <trkpt lat="44.03882" lon="3.50653">
        <ele>1258</ele>
        <time>2013-09-15T11:49:30Z</time>
      </trkpt>
      <trkpt lat="44.03882" lon="3.50669">
        <ele>1258</ele>
        <time>2013-09-15T11:49:39Z</time>
      </trkpt>
      <trkpt lat="44.03884" lon="3.50681">
        <ele>1256</ele>
        <time>2013-09-15T11:49:45Z</time>
      </trkpt>
      <trkpt lat="44.03889" lon="3.50691">
        <ele>1256</ele>
        <time>2013-09-15T11:49:50Z</time>
      </trkpt>
      <trkpt lat="44.03897" lon="3.50701">
        <ele>1258</ele>
        <time>2013-09-15T11:49:57Z</time>
      </trkpt>
      <trkpt lat="44.03919" lon="3.50721">
        <ele>1265</ele>
        <time>2013-09-15T11:50:19Z</time>
      </trkpt>
      <trkpt lat="44.03932" lon="3.50727">
        <ele>1266</ele>
        <time>2013-09-15T11:50:29Z</time>
      </trkpt>
      <trkpt lat="44.0394" lon="3.50728">
        <ele>1267</ele>
        <time>2013-09-15T11:50:35Z</time>
      </trkpt>
      <trkpt lat="44.03952" lon="3.50733">
        <ele>1265</ele>
        <time>2013-09-15T11:50:46Z</time>
      </trkpt>
      <trkpt lat="44.03962" lon="3.50741">
        <ele>1264</ele>
        <time>2013-09-15T11:50:56Z</time>
      </trkpt>
      <trkpt lat="44.03981" lon="3.50763">
        <ele>1266</ele>
        <time>2013-09-15T11:51:18Z</time>
      </trkpt>
      <trkpt lat="44.03999" lon="3.5078">
        <ele>1267</ele>
        <time>2013-09-15T11:51:36Z</time>
      </trkpt>
      <trkpt lat="44.04018" lon="3.50803">
        <ele>1266</ele>
        <time>2013-09-15T11:51:58Z</time>
      </trkpt>
      <trkpt lat="44.04036" lon="3.50828">
        <ele>1262</ele>
        <time>2013-09-15T11:52:20Z</time>
      </trkpt>
      <trkpt lat="44.04041" lon="3.50837">
        <ele>1263</ele>
        <time>2013-09-15T11:52:26Z</time>
      </trkpt>
      <trkpt lat="44.04044" lon="3.50851">
        <ele>1263</ele>
        <time>2013-09-15T11:52:34Z</time>
      </trkpt>
      <trkpt lat="44.04047" lon="3.50881">
        <ele>1262</ele>
        <time>2013-09-15T11:52:52Z</time>
      </trkpt>
      <trkpt lat="44.04046" lon="3.50898">
        <ele>1243</ele>
        <time>2013-09-15T11:53:02Z</time>
      </trkpt>
      <trkpt lat="44.04039" lon="3.50932">
        <ele>1241</ele>
        <time>2013-09-15T11:53:24Z</time>
      </trkpt>
      <trkpt lat="44.04039" lon="3.50949">
        <ele>1248</ele>
        <time>2013-09-15T11:53:38Z</time>
      </trkpt>
      <trkpt lat="44.04043" lon="3.50964">
        <ele>1254</ele>
        <time>2013-09-15T11:53:49Z</time>
      </trkpt>
      <trkpt lat="44.04056" lon="3.50984">
        <ele>1260</ele>
        <time>2013-09-15T11:54:06Z</time>
      </trkpt>
      <trkpt lat="44.04093" lon="3.51021">
        <ele>1263</ele>
        <time>2013-09-15T11:54:52Z</time>
      </trkpt>
      <trkpt lat="44.04097" lon="3.51029">
        <ele>1263</ele>
        <time>2013-09-15T11:55:02Z</time>
      </trkpt>
      <trkpt lat="44.04107" lon="3.51039">
        <ele>1265</ele>
        <time>2013-09-15T11:55:25Z</time>
      </trkpt>
      <trkpt lat="44.04119" lon="3.5106">
        <ele>1261</ele>
        <time>2013-09-15T11:55:49Z</time>
      </trkpt>
      <trkpt lat="44.04127" lon="3.51068">
        <ele>1260</ele>
        <time>2013-09-15T11:55:59Z</time>
      </trkpt>
      <trkpt lat="44.04133" lon="3.51069">
        <ele>1259</ele>
        <time>2013-09-15T11:56:06Z</time>
      </trkpt>
      <trkpt lat="44.0414" lon="3.51069">
        <ele>1258</ele>
        <time>2013-09-15T11:56:14Z</time>
      </trkpt>
      <trkpt lat="44.04159" lon="3.51054">
        <ele>1259</ele>
        <time>2013-09-15T11:56:39Z</time>
      </trkpt>
      <trkpt lat="44.04183" lon="3.51044">
        <ele>1257</ele>
        <time>2013-09-15T11:57:07Z</time>
      </trkpt>
      <trkpt lat="44.04187" lon="3.51044">
        <ele>1258</ele>
        <time>2013-09-15T11:57:12Z</time>
      </trkpt>
      <trkpt lat="44.04193" lon="3.51047">
        <ele>1259</ele>
        <time>2013-09-15T11:57:18Z</time>
      </trkpt>
      <trkpt lat="44.04205" lon="3.5107">
        <ele>1258</ele>
        <time>2013-09-15T11:57:38Z</time>
      </trkpt>
      <trkpt lat="44.04219" lon="3.51088">
        <ele>1262</ele>
        <time>2013-09-15T11:57:56Z</time>
      </trkpt>
      <trkpt lat="44.04234" lon="3.51113">
        <ele>1263</ele>
        <time>2013-09-15T11:58:16Z</time>
      </trkpt>
      <trkpt lat="44.04247" lon="3.51155">
        <ele>1260.1</ele>
        <time>2013-09-15T11:58:48Z</time>
      </trkpt>
      <trkpt lat="44.04258" lon="3.51177">
        <ele>1262.1</ele>
        <time>2013-09-15T11:59:05Z</time>
      </trkpt>
      <trkpt lat="44.04276" lon="3.51202">
        <ele>1259.1</ele>
        <time>2013-09-15T11:59:29Z</time>
      </trkpt>
      <trkpt lat="44.0429" lon="3.51218">
        <ele>1258.1</ele>
        <time>2013-09-15T11:59:40Z</time>
      </trkpt>
      <trkpt lat="44.04299" lon="3.51226">
        <ele>1257.1</ele>
        <time>2013-09-15T11:59:47Z</time>
      </trkpt>
      <trkpt lat="44.04306" lon="3.51237">
        <ele>1250.1</ele>
        <time>2013-09-15T11:59:58Z</time>
      </trkpt>
      <trkpt lat="44.0432" lon="3.51252">
        <ele>1250.1</ele>
        <time>2013-09-15T12:00:21Z</time>
      </trkpt>
      <trkpt lat="44.04323" lon="3.51266">
        <ele>1250.1</ele>
        <time>2013-09-15T12:00:27Z</time>
      </trkpt>
      <trkpt lat="44.04324" lon="3.51281">
        <ele>1253.1</ele>
        <time>2013-09-15T12:00:37Z</time>
      </trkpt>
      <trkpt lat="44.04312" lon="3.51311">
        <ele>1260.1</ele>
        <time>2013-09-15T12:00:57Z</time>
      </trkpt>
      <trkpt lat="44.04312" lon="3.51314">
        <ele>1260.1</ele>
        <time>2013-09-15T12:00:59Z</time>
      </trkpt>
      <trkpt lat="44.04316" lon="3.51337">
        <ele>1258.1</ele>
        <time>2013-09-15T12:01:12Z</time>
      </trkpt>
      <trkpt lat="44.04325" lon="3.5137">
        <ele>1256.1</ele>
        <time>2013-09-15T12:01:32Z</time>
      </trkpt>
      <trkpt lat="44.04328" lon="3.51406">
        <ele>1258.1</ele>
        <time>2013-09-15T12:01:49Z</time>
      </trkpt>
      <trkpt lat="44.04331" lon="3.51421">
        <ele>1258.1</ele>
        <time>2013-09-15T12:01:56Z</time>
      </trkpt>
      <trkpt lat="44.04334" lon="3.51429">
        <ele>1258.1</ele>
        <time>2013-09-15T12:02:01Z</time>
      </trkpt>
      <trkpt lat="44.0434" lon="3.51436">
        <ele>1259.1</ele>
        <time>2013-09-15T12:02:06Z</time>
      </trkpt>
      <trkpt lat="44.04351" lon="3.51445">
        <ele>1259.1</ele>
        <time>2013-09-15T12:02:16Z</time>
      </trkpt>
      <trkpt lat="44.0436" lon="3.51456">
        <ele>1258.1</ele>
        <time>2013-09-15T12:02:30Z</time>
      </trkpt>
      <trkpt lat="44.04366" lon="3.51468">
        <ele>1256.1</ele>
        <time>2013-09-15T12:03:03Z</time>
      </trkpt>
      <trkpt lat="44.04382" lon="3.5147">
        <ele>1256.1</ele>
        <time>2013-09-15T12:03:21Z</time>
      </trkpt>
      <trkpt lat="44.04396" lon="3.51469">
        <ele>1257.1</ele>
        <time>2013-09-15T12:03:32Z</time>
      </trkpt>
      <trkpt lat="44.0441" lon="3.51465">
        <ele>1258.1</ele>
        <time>2013-09-15T12:03:49Z</time>
      </trkpt>
      <trkpt lat="44.04418" lon="3.51467">
        <ele>1261.1</ele>
        <time>2013-09-15T12:04:00Z</time>
      </trkpt>
      <trkpt lat="44.04425" lon="3.51473">
        <ele>1260.1</ele>
        <time>2013-09-15T12:04:12Z</time>
      </trkpt>
      <trkpt lat="44.04432" lon="3.51499">
        <ele>1256.1</ele>
        <time>2013-09-15T12:04:32Z</time>
      </trkpt>
      <trkpt lat="44.04437" lon="3.51511">
        <ele>1250.1</ele>
        <time>2013-09-15T12:04:38Z</time>
      </trkpt>
      <trkpt lat="44.04456" lon="3.5154">
        <ele>1252.1</ele>
        <time>2013-09-15T12:05:03Z</time>
      </trkpt>
      <trkpt lat="44.04467" lon="3.51565">
        <ele>1252.1</ele>
        <time>2013-09-15T12:05:19Z</time>
      </trkpt>
      <trkpt lat="44.04484" lon="3.51584">
        <ele>1253.1</ele>
        <time>2013-09-15T12:05:29Z</time>
      </trkpt>
      <trkpt lat="44.04508" lon="3.516">
        <ele>1254.1</ele>
        <time>2013-09-15T12:05:48Z</time>
      </trkpt>
      <trkpt lat="44.04512" lon="3.51606">
        <ele>1254.1</ele>
        <time>2013-09-15T12:05:53Z</time>
      </trkpt>
      <trkpt lat="44.04522" lon="3.51611">
        <ele>1252.1</ele>
        <time>2013-09-15T12:06:05Z</time>
      </trkpt>
      <trkpt lat="44.04531" lon="3.5161">
        <ele>1251.1</ele>
        <time>2013-09-15T12:06:14Z</time>
      </trkpt>
      <trkpt lat="44.04543" lon="3.51604">
        <ele>1251.1</ele>
        <time>2013-09-15T12:06:23Z</time>
      </trkpt>
      <trkpt lat="44.04547" lon="3.51605">
        <ele>1249.1</ele>
        <time>2013-09-15T12:06:33Z</time>
      </trkpt>
      <trkpt lat="44.04548" lon="3.51613">
        <ele>1237.1</ele>
        <time>2013-09-15T12:06:46Z</time>
      </trkpt>
      <trkpt lat="44.04545" lon="3.51631">
        <ele>1233.1</ele>
        <time>2013-09-15T12:07:00Z</time>
      </trkpt>
      <trkpt lat="44.0453" lon="3.51652">
        <ele>1223.1</ele>
        <time>2013-09-15T12:07:19Z</time>
      </trkpt>
      <trkpt lat="44.04522" lon="3.51682">
        <ele>1225.1</ele>
        <time>2013-09-15T12:07:38Z</time>
      </trkpt>
      <trkpt lat="44.04501" lon="3.51715">
        <ele>1231.1</ele>
        <time>2013-09-15T12:08:19Z</time>
      </trkpt>
      <trkpt lat="44.04473" lon="3.51721">
        <ele>1232.1</ele>
        <time>2013-09-15T12:08:33Z</time>
      </trkpt>
      <trkpt lat="44.04419" lon="3.51739">
        <ele>1232.1</ele>
        <time>2013-09-15T12:09:12Z</time>
      </trkpt>
      <trkpt lat="44.04395" lon="3.51759">
        <ele>1234.1</ele>
        <time>2013-09-15T12:09:43Z</time>
      </trkpt>
      <trkpt lat="44.04366" lon="3.51772">
        <ele>1236.1</ele>
        <time>2013-09-15T12:10:12Z</time>
      </trkpt>
      <trkpt lat="44.04338" lon="3.51786">
        <ele>1237.1</ele>
        <time>2013-09-15T12:10:33Z</time>
      </trkpt>
      <trkpt lat="44.04323" lon="3.51797">
        <ele>1237.1</ele>
        <time>2013-09-15T12:10:47Z</time>
      </trkpt>
      <trkpt lat="44.04288" lon="3.5181">
        <ele>1236.1</ele>
        <time>2013-09-15T12:11:24Z</time>
      </trkpt>
      <trkpt lat="44.04279" lon="3.51816">
        <ele>1236.1</ele>
        <time>2013-09-15T12:11:31Z</time>
      </trkpt>
      <trkpt lat="44.04275" lon="3.51822">
        <ele>1236.1</ele>
        <time>2013-09-15T12:11:36Z</time>
      </trkpt>
      <trkpt lat="44.04261" lon="3.51834">
        <ele>1236.1</ele>
        <time>2013-09-15T12:11:43Z</time>
      </trkpt>
      <trkpt lat="44.04248" lon="3.5184">
        <ele>1231.1</ele>
        <time>2013-09-15T12:11:48Z</time>
      </trkpt>
      <trkpt lat="44.04226" lon="3.51854">
        <ele>1228.1</ele>
        <time>2013-09-15T12:11:59Z</time>
      </trkpt>
      <trkpt lat="44.04205" lon="3.51874">
        <ele>1229.1</ele>
        <time>2013-09-15T12:12:15Z</time>
      </trkpt>
      <trkpt lat="44.04193" lon="3.51879">
        <ele>1231.1</ele>
        <time>2013-09-15T12:12:23Z</time>
      </trkpt>
      <trkpt lat="44.04183" lon="3.51887">
        <ele>1233.1</ele>
        <time>2013-09-15T12:12:32Z</time>
      </trkpt>
      <trkpt lat="44.04168" lon="3.51892">
        <ele>1235.1</ele>
        <time>2013-09-15T12:12:42Z</time>
      </trkpt>
      <trkpt lat="44.04157" lon="3.51897">
        <ele>1237.1</ele>
        <time>2013-09-15T12:12:54Z</time>
      </trkpt>
      <trkpt lat="44.04144" lon="3.51892">
        <ele>1235.1</ele>
        <time>2013-09-15T12:13:18Z</time>
      </trkpt>
      <trkpt lat="44.04129" lon="3.51881">
        <ele>1233.1</ele>
        <time>2013-09-15T12:13:33Z</time>
      </trkpt>
      <trkpt lat="44.04104" lon="3.51867">
        <ele>1235.1</ele>
        <time>2013-09-15T12:13:53Z</time>
      </trkpt>
      <trkpt lat="44.04087" lon="3.5185">
        <ele>1236.1</ele>
        <time>2013-09-15T12:14:13Z</time>
      </trkpt>
      <trkpt lat="44.04079" lon="3.51845">
        <ele>1237.1</ele>
        <time>2013-09-15T12:14:24Z</time>
      </trkpt>
      <trkpt lat="44.04066" lon="3.51832">
        <ele>1239.1</ele>
        <time>2013-09-15T12:14:45Z</time>
      </trkpt>
      <trkpt lat="44.04058" lon="3.51814">
        <ele>1240.1</ele>
        <time>2013-09-15T12:14:57Z</time>
      </trkpt>
      <trkpt lat="44.0405" lon="3.51804">
        <ele>1240.1</ele>
        <time>2013-09-15T12:15:05Z</time>
      </trkpt>
      <trkpt lat="44.04045" lon="3.51787">
        <ele>1243.1</ele>
        <time>2013-09-15T12:15:15Z</time>
      </trkpt>
      <trkpt lat="44.04038" lon="3.51746">
        <ele>1240.1</ele>
        <time>2013-09-15T12:15:40Z</time>
      </trkpt>
      <trkpt lat="44.0403" lon="3.51679">
        <ele>1240.1</ele>
        <time>2013-09-15T12:16:28Z</time>
      </trkpt>
      <trkpt lat="44.04026" lon="3.51664">
        <ele>1229.1</ele>
        <time>2013-09-15T12:16:43Z</time>
      </trkpt>
      <trkpt lat="44.04" lon="3.5162">
        <ele>1224.1</ele>
        <time>2013-09-15T12:17:14Z</time>
      </trkpt>
      <trkpt lat="44.03989" lon="3.51607">
        <ele>1222.1</ele>
        <time>2013-09-15T12:17:24Z</time>
      </trkpt>
      <trkpt lat="44.03963" lon="3.51563">
        <ele>1228.1</ele>
        <time>2013-09-15T12:17:50Z</time>
      </trkpt>
      <trkpt lat="44.03938" lon="3.51513">
        <ele>1236.1</ele>
        <time>2013-09-15T12:18:28Z</time>
      </trkpt>
      <trkpt lat="44.03928" lon="3.51501">
        <ele>1235.1</ele>
        <time>2013-09-15T12:18:38Z</time>
      </trkpt>
      <trkpt lat="44.03917" lon="3.51496">
        <ele>1230.1</ele>
        <time>2013-09-15T12:18:51Z</time>
      </trkpt>
      <trkpt lat="44.03898" lon="3.51504">
        <ele>1230.1</ele>
        <time>2013-09-15T12:19:36Z</time>
      </trkpt>
      <trkpt lat="44.0387" lon="3.51525">
        <ele>1233.1</ele>
        <time>2013-09-15T12:20:00Z</time>
      </trkpt>
      <trkpt lat="44.03852" lon="3.51555">
        <ele>1239.1</ele>
        <time>2013-09-15T12:20:44Z</time>
      </trkpt>
      <trkpt lat="44.03833" lon="3.51574">
        <ele>1239.1</ele>
        <time>2013-09-15T12:21:06Z</time>
      </trkpt>
      <trkpt lat="44.03816" lon="3.51586">
        <ele>1242.1</ele>
        <time>2013-09-15T12:21:29Z</time>
      </trkpt>
      <trkpt lat="44.03828" lon="3.51592">
        <ele>1241.1</ele>
        <time>2013-09-15T12:22:46Z</time>
      </trkpt>
      <trkpt lat="44.03823" lon="3.51595">
        <ele>1242.1</ele>
        <time>2013-09-15T12:23:12Z</time>
      </trkpt>
      <trkpt lat="44.03819" lon="3.51597">
        <ele>1245.1</ele>
        <time>2013-09-15T12:23:23Z</time>
      </trkpt>
      <trkpt lat="44.0381" lon="3.51596">
        <ele>1244.1</ele>
        <time>2013-09-15T12:23:36Z</time>
      </trkpt>
      <trkpt lat="44.03794" lon="3.51601">
        <ele>1247.1</ele>
        <time>2013-09-15T12:24:00Z</time>
      </trkpt>
      <trkpt lat="44.03775" lon="3.51602">
        <ele>1250.1</ele>
        <time>2013-09-15T12:24:25Z</time>
      </trkpt>
      <trkpt lat="44.03752" lon="3.51607">
        <ele>1251.1</ele>
        <time>2013-09-15T12:24:58Z</time>
      </trkpt>
      <trkpt lat="44.03711" lon="3.51605">
        <ele>1253.1</ele>
        <time>2013-09-15T12:25:27Z</time>
      </trkpt>
      <trkpt lat="44.03701" lon="3.51609">
        <ele>1254.1</ele>
        <time>2013-09-15T12:25:45Z</time>
      </trkpt>
      <trkpt lat="44.03681" lon="3.51621">
        <ele>1255.1</ele>
        <time>2013-09-15T12:26:09Z</time>
      </trkpt>
      <trkpt lat="44.03668" lon="3.51627">
        <ele>1257.1</ele>
        <time>2013-09-15T12:26:23Z</time>
      </trkpt>
      <trkpt lat="44.0365" lon="3.51644">
        <ele>1262.1</ele>
        <time>2013-09-15T12:26:46Z</time>
      </trkpt>
      <trkpt lat="44.03632" lon="3.5165">
        <ele>1262.1</ele>
        <time>2013-09-15T12:27:11Z</time>
      </trkpt>
      <trkpt lat="44.03624" lon="3.51656">
        <ele>1263.1</ele>
        <time>2013-09-15T12:27:20Z</time>
      </trkpt>
      <trkpt lat="44.03616" lon="3.51667">
        <ele>1261.1</ele>
        <time>2013-09-15T12:27:31Z</time>
      </trkpt>
      <trkpt lat="44.03604" lon="3.51694">
        <ele>1259.1</ele>
        <time>2013-09-15T12:27:51Z</time>
      </trkpt>
      <trkpt lat="44.03583" lon="3.51783">
        <ele>1264.1</ele>
        <time>2013-09-15T12:28:48Z</time>
      </trkpt>
      <trkpt lat="44.03577" lon="3.51794">
        <ele>1265.1</ele>
        <time>2013-09-15T12:28:59Z</time>
      </trkpt>
      <trkpt lat="44.03568" lon="3.51845">
        <ele>1259.1</ele>
        <time>2013-09-15T12:29:49Z</time>
      </trkpt>
      <trkpt lat="44.03558" lon="3.51885">
        <ele>1258.1</ele>
        <time>2013-09-15T12:30:21Z</time>
      </trkpt>
      <trkpt lat="44.03553" lon="3.51893">
        <ele>1259.1</ele>
        <time>2013-09-15T12:30:27Z</time>
      </trkpt>
      <trkpt lat="44.03543" lon="3.51903">
        <ele>1260.1</ele>
        <time>2013-09-15T12:30:41Z</time>
      </trkpt>
      <trkpt lat="44.03538" lon="3.51915">
        <ele>1261.1</ele>
        <time>2013-09-15T12:30:53Z</time>
      </trkpt>
      <trkpt lat="44.03513" lon="3.51934">
        <ele>1251.1</ele>
        <time>2013-09-15T12:31:29Z</time>
      </trkpt>
      <trkpt lat="44.035" lon="3.51937">
        <ele>1250.1</ele>
        <time>2013-09-15T12:31:39Z</time>
      </trkpt>
      <trkpt lat="44.03467" lon="3.51951">
        <ele>1252.1</ele>
        <time>2013-09-15T12:32:11Z</time>
      </trkpt>
      <trkpt lat="44.03461" lon="3.51955">
        <ele>1252.1</ele>
        <time>2013-09-15T12:32:16Z</time>
      </trkpt>
      <trkpt lat="44.03425" lon="3.51967">
        <ele>1249.1</ele>
        <time>2013-09-15T12:32:56Z</time>
      </trkpt>
      <trkpt lat="44.03397" lon="3.51983">
        <ele>1245.1</ele>
        <time>2013-09-15T12:33:31Z</time>
      </trkpt>
      <trkpt lat="44.03382" lon="3.51986">
        <ele>1244.1</ele>
        <time>2013-09-15T12:33:47Z</time>
      </trkpt>
      <trkpt lat="44.03354" lon="3.51986">
        <ele>1235.1</ele>
        <time>2013-09-15T12:34:12Z</time>
      </trkpt>
      <trkpt lat="44.03327" lon="3.5199">
        <ele>1225.1</ele>
        <time>2013-09-15T12:34:44Z</time>
      </trkpt>
      <trkpt lat="44.03272" lon="3.51988">
        <ele>1232.1</ele>
        <time>2013-09-15T12:35:23Z</time>
      </trkpt>
      <trkpt lat="44.03233" lon="3.5199">
        <ele>1245.1</ele>
        <time>2013-09-15T12:36:13Z</time>
      </trkpt>
      <trkpt lat="44.03219" lon="3.52008">
        <ele>1256.1</ele>
        <time>2013-09-15T12:36:51Z</time>
      </trkpt>
      <trkpt lat="44.03207" lon="3.52001">
        <ele>1252.1</ele>
        <time>2013-09-15T12:41:11Z</time>
      </trkpt>
      <trkpt lat="44.03185" lon="3.51978">
        <ele>1247.1</ele>
        <time>2013-09-15T12:42:03Z</time>
      </trkpt>
      <trkpt lat="44.03145" lon="3.51976">
        <ele>1246.1</ele>
        <time>2013-09-15T12:42:28Z</time>
      </trkpt>
      <trkpt lat="44.03087" lon="3.51958">
        <ele>1247.1</ele>
        <time>2013-09-15T12:43:38Z</time>
      </trkpt>
      <trkpt lat="44.0306" lon="3.51947">
        <ele>1244.1</ele>
        <time>2013-09-15T12:44:16Z</time>
      </trkpt>
      <trkpt lat="44.03032" lon="3.51937">
        <ele>1245.1</ele>
        <time>2013-09-15T12:44:31Z</time>
      </trkpt>
      <trkpt lat="44.03008" lon="3.51922">
        <ele>1248.1</ele>
        <time>2013-09-15T12:44:52Z</time>
      </trkpt>
      <trkpt lat="44.0298" lon="3.51918">
        <ele>1249.1</ele>
        <time>2013-09-15T12:45:10Z</time>
      </trkpt>
      <trkpt lat="44.02928" lon="3.51894">
        <ele>1252.1</ele>
        <time>2013-09-15T12:45:49Z</time>
      </trkpt>
      <trkpt lat="44.02895" lon="3.51866">
        <ele>1245.1</ele>
        <time>2013-09-15T12:46:37Z</time>
      </trkpt>
      <trkpt lat="44.02868" lon="3.51846">
        <ele>1247.1</ele>
        <time>2013-09-15T12:46:48Z</time>
      </trkpt>
      <trkpt lat="44.02854" lon="3.51833">
        <ele>1247.1</ele>
        <time>2013-09-15T12:47:01Z</time>
      </trkpt>
      <trkpt lat="44.02846" lon="3.51829">
        <ele>1251.1</ele>
        <time>2013-09-15T12:47:20Z</time>
      </trkpt>
      <trkpt lat="44.02837" lon="3.51819">
        <ele>1251.1</ele>
        <time>2013-09-15T12:47:35Z</time>
      </trkpt>
      <trkpt lat="44.02815" lon="3.51803">
        <ele>1258.1</ele>
        <time>2013-09-15T12:48:03Z</time>
      </trkpt>
      <trkpt lat="44.02789" lon="3.51792">
        <ele>1261.1</ele>
        <time>2013-09-15T12:48:14Z</time>
      </trkpt>
      <trkpt lat="44.02767" lon="3.51776">
        <ele>1261.1</ele>
        <time>2013-09-15T12:48:26Z</time>
      </trkpt>
      <trkpt lat="44.0276" lon="3.51766">
        <ele>1263.1</ele>
        <time>2013-09-15T12:48:33Z</time>
      </trkpt>
      <trkpt lat="44.02736" lon="3.51723">
        <ele>1269.1</ele>
        <time>2013-09-15T12:48:58Z</time>
      </trkpt>
      <trkpt lat="44.02713" lon="3.51675">
        <ele>1270.1</ele>
        <time>2013-09-15T12:49:34Z</time>
      </trkpt>
      <trkpt lat="44.0271" lon="3.51665">
        <ele>1269.1</ele>
        <time>2013-09-15T12:49:44Z</time>
      </trkpt>
      <trkpt lat="44.02711" lon="3.51663">
        <ele>1268.1</ele>
        <time>2013-09-15T12:49:46Z</time>
      </trkpt>
      <trkpt lat="44.02716" lon="3.51656">
        <ele>1266.1</ele>
        <time>2013-09-15T12:49:52Z</time>
      </trkpt>
      <trkpt lat="44.02732" lon="3.51641">
        <ele>1268.1</ele>
        <time>2013-09-15T12:50:13Z</time>
      </trkpt>
      <trkpt lat="44.02752" lon="3.51613">
        <ele>1268.1</ele>
        <time>2013-09-15T12:50:44Z</time>
      </trkpt>
      <trkpt lat="44.02755" lon="3.51576">
        <ele>1271.1</ele>
        <time>2013-09-15T12:51:15Z</time>
      </trkpt>
      <trkpt lat="44.02752" lon="3.51546">
        <ele>1265.1</ele>
        <time>2013-09-15T12:51:32Z</time>
      </trkpt>
      <trkpt lat="44.02741" lon="3.51507">
        <ele>1263.1</ele>
        <time>2013-09-15T12:52:02Z</time>
      </trkpt>
      <trkpt lat="44.02718" lon="3.51466">
        <ele>1268.1</ele>
        <time>2013-09-15T12:52:19Z</time>
      </trkpt>
      <trkpt lat="44.02708" lon="3.51444">
        <ele>1273.1</ele>
        <time>2013-09-15T12:52:33Z</time>
      </trkpt>
      <trkpt lat="44.02703" lon="3.51427">
        <ele>1275.1</ele>
        <time>2013-09-15T12:52:45Z</time>
      </trkpt>
      <trkpt lat="44.02692" lon="3.51405">
        <ele>1277.1</ele>
        <time>2013-09-15T12:53:05Z</time>
      </trkpt>
      <trkpt lat="44.02682" lon="3.51366">
        <ele>1282.1</ele>
        <time>2013-09-15T12:53:37Z</time>
      </trkpt>
      <trkpt lat="44.02682" lon="3.51359">
        <ele>1282.1</ele>
        <time>2013-09-15T12:53:44Z</time>
      </trkpt>
      <trkpt lat="44.02684" lon="3.51351">
        <ele>1283.1</ele>
        <time>2013-09-15T12:53:56Z</time>
      </trkpt>
      <trkpt lat="44.02701" lon="3.51341">
        <ele>1286.1</ele>
        <time>2013-09-15T12:54:16Z</time>
      </trkpt>
      <trkpt lat="44.02707" lon="3.51333">
        <ele>1287.1</ele>
        <time>2013-09-15T12:54:25Z</time>
      </trkpt>
      <trkpt lat="44.02715" lon="3.51319">
        <ele>1290.1</ele>
        <time>2013-09-15T12:54:37Z</time>
      </trkpt>
      <trkpt lat="44.02746" lon="3.51249">
        <ele>1300.1</ele>
        <time>2013-09-15T12:55:27Z</time>
      </trkpt>
      <trkpt lat="44.02785" lon="3.51187">
        <ele>1308.1</ele>
        <time>2013-09-15T12:56:21Z</time>
      </trkpt>
      <trkpt lat="44.02799" lon="3.51178">
        <ele>1312.1</ele>
        <time>2013-09-15T12:56:34Z</time>
      </trkpt>
      <trkpt lat="44.02818" lon="3.5117">
        <ele>1317.1</ele>
        <time>2013-09-15T12:56:52Z</time>
      </trkpt>
      <trkpt lat="44.02827" lon="3.51164">
        <ele>1319.1</ele>
        <time>2013-09-15T12:57:02Z</time>
      </trkpt>
      <trkpt lat="44.02842" lon="3.51157">
        <ele>1324.1</ele>
        <time>2013-09-15T12:57:24Z</time>
      </trkpt>
      <trkpt lat="44.02851" lon="3.51154">
        <ele>1326.1</ele>
        <time>2013-09-15T12:57:34Z</time>
      </trkpt>
      <trkpt lat="44.02871" lon="3.51154">
        <ele>1331.1</ele>
        <time>2013-09-15T12:57:56Z</time>
      </trkpt>
      <trkpt lat="44.02877" lon="3.51151">
        <ele>1333.1</ele>
        <time>2013-09-15T12:58:08Z</time>
      </trkpt>
      <trkpt lat="44.02914" lon="3.51161">
        <ele>1342.1</ele>
        <time>2013-09-15T12:58:53Z</time>
      </trkpt>
      <trkpt lat="44.02929" lon="3.51171">
        <ele>1344.1</ele>
        <time>2013-09-15T12:59:10Z</time>
      </trkpt>
      <trkpt lat="44.02936" lon="3.51174">
        <ele>1347.1</ele>
        <time>2013-09-15T12:59:16Z</time>
      </trkpt>
      <trkpt lat="44.02968" lon="3.51177">
        <ele>1359.1</ele>
        <time>2013-09-15T12:59:47Z</time>
      </trkpt>
      <trkpt lat="44.02981" lon="3.51175">
        <ele>1363.1</ele>
        <time>2013-09-15T13:00:01Z</time>
      </trkpt>
      <trkpt lat="44.02998" lon="3.51167">
        <ele>1365.1</ele>
        <time>2013-09-15T13:00:23Z</time>
      </trkpt>
      <trkpt lat="44.03013" lon="3.51166">
        <ele>1367.1</ele>
        <time>2013-09-15T13:00:34Z</time>
      </trkpt>
      <trkpt lat="44.03026" lon="3.51164">
        <ele>1370.1</ele>
        <time>2013-09-15T13:00:42Z</time>
      </trkpt>
      <trkpt lat="44.03038" lon="3.51158">
        <ele>1372.1</ele>
        <time>2013-09-15T13:00:52Z</time>
      </trkpt>
      <trkpt lat="44.03043" lon="3.51157">
        <ele>1373.1</ele>
        <time>2013-09-15T13:00:57Z</time>
      </trkpt>
      <trkpt lat="44.0305" lon="3.51154">
        <ele>1374.1</ele>
        <time>2013-09-15T13:01:06Z</time>
      </trkpt>
      <trkpt lat="44.03069" lon="3.5115">
        <ele>1378.1</ele>
        <time>2013-09-15T13:01:25Z</time>
      </trkpt>
      <trkpt lat="44.03089" lon="3.51149">
        <ele>1382.1</ele>
        <time>2013-09-15T13:01:37Z</time>
      </trkpt>
      <trkpt lat="44.03098" lon="3.51145">
        <ele>1384.1</ele>
        <time>2013-09-15T13:01:47Z</time>
      </trkpt>
      <trkpt lat="44.03122" lon="3.51116">
        <ele>1391.1</ele>
        <time>2013-09-15T13:02:14Z</time>
      </trkpt>
      <trkpt lat="44.03128" lon="3.51103">
        <ele>1386.1</ele>
        <time>2013-09-15T13:02:23Z</time>
      </trkpt>
      <trkpt lat="44.03145" lon="3.5109">
        <ele>1383.1</ele>
        <time>2013-09-15T13:02:42Z</time>
      </trkpt>
      <trkpt lat="44.03152" lon="3.51084">
        <ele>1373.1</ele>
        <time>2013-09-15T13:02:50Z</time>
      </trkpt>
      <trkpt lat="44.03173" lon="3.51083">
        <ele>1361.1</ele>
        <time>2013-09-15T13:03:01Z</time>
      </trkpt>
      <trkpt lat="44.03184" lon="3.5108">
        <ele>1359.1</ele>
        <time>2013-09-15T13:03:09Z</time>
      </trkpt>
      <trkpt lat="44.03194" lon="3.51076">
        <ele>1359.1</ele>
        <time>2013-09-15T13:03:19Z</time>
      </trkpt>
      <trkpt lat="44.03202" lon="3.51069">
        <ele>1360.1</ele>
        <time>2013-09-15T13:03:35Z</time>
      </trkpt>
      <trkpt lat="44.03204" lon="3.51066">
        <ele>1357.1</ele>
        <time>2013-09-15T13:03:42Z</time>
      </trkpt>
      <trkpt lat="44.03205" lon="3.5105">
        <ele>1345.1</ele>
        <time>2013-09-15T13:04:33Z</time>
      </trkpt>
      <trkpt lat="44.0321" lon="3.51051">
        <ele>1349.1</ele>
        <time>2013-09-15T13:05:03Z</time>
      </trkpt>
      <trkpt lat="44.03216" lon="3.51061">
        <ele>1332.1</ele>
        <time>2013-09-15T13:06:04Z</time>
      </trkpt>
      <trkpt lat="44.03221" lon="3.51065">
        <ele>1331.1</ele>
        <time>2013-09-15T13:06:09Z</time>
      </trkpt>
      <trkpt lat="44.03225" lon="3.51066">
        <ele>1331.1</ele>
        <time>2013-09-15T13:06:13Z</time>
      </trkpt>
      <trkpt lat="44.03254" lon="3.51058">
        <ele>1327.1</ele>
        <time>2013-09-15T13:06:38Z</time>
      </trkpt>
      <trkpt lat="44.03267" lon="3.51049">
        <ele>1327.1</ele>
        <time>2013-09-15T13:06:46Z</time>
      </trkpt>
      <trkpt lat="44.03291" lon="3.5102">
        <ele>1328</ele>
        <time>2013-09-15T13:07:08Z</time>
      </trkpt>
      <trkpt lat="44.03296" lon="3.51007">
        <ele>1325</ele>
        <time>2013-09-15T13:07:15Z</time>
      </trkpt>
      <trkpt lat="44.033" lon="3.5098">
        <ele>1325</ele>
        <time>2013-09-15T13:07:29Z</time>
      </trkpt>
      <trkpt lat="44.03298" lon="3.50971">
        <ele>1325</ele>
        <time>2013-09-15T13:07:36Z</time>
      </trkpt>
      <trkpt lat="44.03296" lon="3.50939">
        <ele>1307</ele>
        <time>2013-09-15T13:07:52Z</time>
      </trkpt>
      <trkpt lat="44.03293" lon="3.50928">
        <ele>1302</ele>
        <time>2013-09-15T13:07:57Z</time>
      </trkpt>
      <trkpt lat="44.03263" lon="3.50856">
        <ele>1291</ele>
        <time>2013-09-15T13:08:41Z</time>
      </trkpt>
      <trkpt lat="44.03256" lon="3.5082">
        <ele>1270</ele>
        <time>2013-09-15T13:09:01Z</time>
      </trkpt>
      <trkpt lat="44.03238" lon="3.508">
        <ele>1269</ele>
        <time>2013-09-15T13:09:14Z</time>
      </trkpt>
      <trkpt lat="44.03235" lon="3.50795">
        <ele>1270</ele>
        <time>2013-09-15T13:09:18Z</time>
      </trkpt>
      <trkpt lat="44.03228" lon="3.50779">
        <ele>1273</ele>
        <time>2013-09-15T13:09:28Z</time>
      </trkpt>
      <trkpt lat="44.03222" lon="3.50772">
        <ele>1273</ele>
        <time>2013-09-15T13:09:33Z</time>
      </trkpt>
      <trkpt lat="44.03214" lon="3.50747">
        <ele>1279</ele>
        <time>2013-09-15T13:10:05Z</time>
      </trkpt>
      <trkpt lat="44.03198" lon="3.5073">
        <ele>1281</ele>
        <time>2013-09-15T13:10:18Z</time>
      </trkpt>
      <trkpt lat="44.03179" lon="3.50681">
        <ele>1290</ele>
        <time>2013-09-15T13:10:51Z</time>
      </trkpt>
      <trkpt lat="44.03177" lon="3.50674">
        <ele>1291</ele>
        <time>2013-09-15T13:10:55Z</time>
      </trkpt>
      <trkpt lat="44.03176" lon="3.50661">
        <ele>1293</ele>
        <time>2013-09-15T13:11:03Z</time>
      </trkpt>
      <trkpt lat="44.03186" lon="3.50625">
        <ele>1297</ele>
        <time>2013-09-15T13:11:29Z</time>
      </trkpt>
      <trkpt lat="44.03198" lon="3.50608">
        <ele>1295</ele>
        <time>2013-09-15T13:11:43Z</time>
      </trkpt>
      <trkpt lat="44.03208" lon="3.50583">
        <ele>1297</ele>
        <time>2013-09-15T13:11:58Z</time>
      </trkpt>
      <trkpt lat="44.0323" lon="3.50545">
        <ele>1306</ele>
        <time>2013-09-15T13:12:27Z</time>
      </trkpt>
      <trkpt lat="44.03239" lon="3.50521">
        <ele>1310</ele>
        <time>2013-09-15T13:12:41Z</time>
      </trkpt>
      <trkpt lat="44.03245" lon="3.50495">
        <ele>1314</ele>
        <time>2013-09-15T13:13:02Z</time>
      </trkpt>
      <trkpt lat="44.03251" lon="3.50483">
        <ele>1316</ele>
        <time>2013-09-15T13:13:09Z</time>
      </trkpt>
      <trkpt lat="44.03275" lon="3.50454">
        <ele>1319</ele>
        <time>2013-09-15T13:13:31Z</time>
      </trkpt>
      <trkpt lat="44.03288" lon="3.5043">
        <ele>1319</ele>
        <time>2013-09-15T13:13:47Z</time>
      </trkpt>
      <trkpt lat="44.03299" lon="3.50415">
        <ele>1321</ele>
        <time>2013-09-15T13:13:58Z</time>
      </trkpt>
      <trkpt lat="44.03309" lon="3.50405">
        <ele>1324</ele>
        <time>2013-09-15T13:14:08Z</time>
      </trkpt>
      <trkpt lat="44.03324" lon="3.50392">
        <ele>1325</ele>
        <time>2013-09-15T13:14:21Z</time>
      </trkpt>
      <trkpt lat="44.03336" lon="3.50376">
        <ele>1326</ele>
        <time>2013-09-15T13:14:34Z</time>
      </trkpt>
      <trkpt lat="44.0335" lon="3.50364">
        <ele>1328</ele>
        <time>2013-09-15T13:14:47Z</time>
      </trkpt>
      <trkpt lat="44.03359" lon="3.50353">
        <ele>1329</ele>
        <time>2013-09-15T13:14:57Z</time>
      </trkpt>
      <trkpt lat="44.03378" lon="3.50325">
        <ele>1320</ele>
        <time>2013-09-15T13:15:17Z</time>
      </trkpt>
      <trkpt lat="44.03389" lon="3.50295">
        <ele>1324</ele>
        <time>2013-09-15T13:15:36Z</time>
      </trkpt>
      <trkpt lat="44.03392" lon="3.50279">
        <ele>1326</ele>
        <time>2013-09-15T13:15:45Z</time>
      </trkpt>
      <trkpt lat="44.03394" lon="3.50233">
        <ele>1323</ele>
        <time>2013-09-15T13:16:14Z</time>
      </trkpt>
      <trkpt lat="44.03396" lon="3.50225">
        <ele>1323</ele>
        <time>2013-09-15T13:16:28Z</time>
      </trkpt>
      <trkpt lat="44.03404" lon="3.50205">
        <ele>1318</ele>
        <time>2013-09-15T13:18:41Z</time>
      </trkpt>
      <trkpt lat="44.03405" lon="3.50203">
        <ele>1318</ele>
        <time>2013-09-15T13:18:48Z</time>
      </trkpt>
      <trkpt lat="44.03406" lon="3.50202">
        <ele>1320</ele>
        <time>2013-09-15T13:18:52Z</time>
      </trkpt>
      <trkpt lat="44.03402" lon="3.50204">
        <ele>1318</ele>
        <time>2013-09-15T13:19:21Z</time>
      </trkpt>
      <trkpt lat="44.03394" lon="3.50197">
        <ele>1321</ele>
        <time>2013-09-15T13:19:37Z</time>
      </trkpt>
      <trkpt lat="44.03384" lon="3.50181">
        <ele>1321</ele>
        <time>2013-09-15T13:19:54Z</time>
      </trkpt>
      <trkpt lat="44.03369" lon="3.50145">
        <ele>1322</ele>
        <time>2013-09-15T13:20:19Z</time>
      </trkpt>
      <trkpt lat="44.03365" lon="3.50126">
        <ele>1325</ele>
        <time>2013-09-15T13:20:31Z</time>
      </trkpt>
      <trkpt lat="44.03359" lon="3.50113">
        <ele>1326</ele>
        <time>2013-09-15T13:20:39Z</time>
      </trkpt>
      <trkpt lat="44.03349" lon="3.50097">
        <ele>1328</ele>
        <time>2013-09-15T13:20:51Z</time>
      </trkpt>
      <trkpt lat="44.03328" lon="3.50057">
        <ele>1330</ele>
        <time>2013-09-15T13:21:44Z</time>
      </trkpt>
      <trkpt lat="44.03306" lon="3.50043">
        <ele>1331</ele>
        <time>2013-09-15T13:22:10Z</time>
      </trkpt>
      <trkpt lat="44.0329" lon="3.50035">
        <ele>1332</ele>
        <time>2013-09-15T13:22:21Z</time>
      </trkpt>
      <trkpt lat="44.03259" lon="3.50028">
        <ele>1335</ele>
        <time>2013-09-15T13:22:51Z</time>
      </trkpt>
      <trkpt lat="44.03232" lon="3.5003">
        <ele>1338</ele>
        <time>2013-09-15T13:23:22Z</time>
      </trkpt>
      <trkpt lat="44.03204" lon="3.5003">
        <ele>1338</ele>
        <time>2013-09-15T13:23:36Z</time>
      </trkpt>
      <trkpt lat="44.03177" lon="3.50027">
        <ele>1339</ele>
        <time>2013-09-15T13:23:59Z</time>
      </trkpt>
      <trkpt lat="44.0315" lon="3.5002">
        <ele>1342</ele>
        <time>2013-09-15T13:24:31Z</time>
      </trkpt>
      <trkpt lat="44.03114" lon="3.50018">
        <ele>1343</ele>
        <time>2013-09-15T13:24:53Z</time>
      </trkpt>
      <trkpt lat="44.03085" lon="3.50015">
        <ele>1344</ele>
        <time>2013-09-15T13:25:06Z</time>
      </trkpt>
      <trkpt lat="44.03078" lon="3.50013">
        <ele>1338</ele>
        <time>2013-09-15T13:25:11Z</time>
      </trkpt>
      <trkpt lat="44.03061" lon="3.50003">
        <ele>1327</ele>
        <time>2013-09-15T13:25:37Z</time>
      </trkpt>
      <trkpt lat="44.03032" lon="3.49995">
        <ele>1320</ele>
        <time>2013-09-15T13:26:08Z</time>
      </trkpt>
      <trkpt lat="44.0299" lon="3.49978">
        <ele>1317</ele>
        <time>2013-09-15T13:26:36Z</time>
      </trkpt>
      <trkpt lat="44.02963" lon="3.49971">
        <ele>1319</ele>
        <time>2013-09-15T13:26:54Z</time>
      </trkpt>
      <trkpt lat="44.02946" lon="3.49963">
        <ele>1317</ele>
        <time>2013-09-15T13:27:06Z</time>
      </trkpt>
      <trkpt lat="44.02933" lon="3.49956">
        <ele>1305</ele>
        <time>2013-09-15T13:27:23Z</time>
      </trkpt>
      <trkpt lat="44.0291" lon="3.49949">
        <ele>1300</ele>
        <time>2013-09-15T13:27:43Z</time>
      </trkpt>
      <trkpt lat="44.0289" lon="3.49946">
        <ele>1298</ele>
        <time>2013-09-15T13:27:54Z</time>
      </trkpt>
      <trkpt lat="44.02846" lon="3.49954">
        <ele>1303</ele>
        <time>2013-09-15T13:28:24Z</time>
      </trkpt>
      <trkpt lat="44.02806" lon="3.49975">
        <ele>1308</ele>
        <time>2013-09-15T13:28:54Z</time>
      </trkpt>
      <trkpt lat="44.02796" lon="3.49984">
        <ele>1310</ele>
        <time>2013-09-15T13:29:12Z</time>
      </trkpt>
      <trkpt lat="44.02781" lon="3.49988">
        <ele>1314</ele>
        <time>2013-09-15T13:29:32Z</time>
      </trkpt>
      <trkpt lat="44.02757" lon="3.49991">
        <ele>1316</ele>
        <time>2013-09-15T13:29:46Z</time>
      </trkpt>
      <trkpt lat="44.02734" lon="3.5">
        <ele>1318</ele>
        <time>2013-09-15T13:30:00Z</time>
      </trkpt>
      <trkpt lat="44.02722" lon="3.50003">
        <ele>1319</ele>
        <time>2013-09-15T13:30:11Z</time>
      </trkpt>
      <trkpt lat="44.02713" lon="3.50001">
        <ele>1320</ele>
        <time>2013-09-15T13:30:17Z</time>
      </trkpt>
      <trkpt lat="44.02702" lon="3.49997">
        <ele>1322</ele>
        <time>2013-09-15T13:30:27Z</time>
      </trkpt>
      <trkpt lat="44.02695" lon="3.49992">
        <ele>1324</ele>
        <time>2013-09-15T13:30:32Z</time>
      </trkpt>
      <trkpt lat="44.02685" lon="3.49981">
        <ele>1326</ele>
        <time>2013-09-15T13:30:40Z</time>
      </trkpt>
      <trkpt lat="44.02677" lon="3.49969">
        <ele>1329</ele>
        <time>2013-09-15T13:30:50Z</time>
      </trkpt>
      <trkpt lat="44.02661" lon="3.49937">
        <ele>1329</ele>
        <time>2013-09-15T13:31:15Z</time>
      </trkpt>
      <trkpt lat="44.02657" lon="3.49931">
        <ele>1329</ele>
        <time>2013-09-15T13:31:24Z</time>
      </trkpt>
      <trkpt lat="44.02644" lon="3.49919">
        <ele>1330</ele>
        <time>2013-09-15T13:31:42Z</time>
      </trkpt>
      <trkpt lat="44.02612" lon="3.4988">
        <ele>1335</ele>
        <time>2013-09-15T13:32:19Z</time>
      </trkpt>
      <trkpt lat="44.02583" lon="3.49854">
        <ele>1335</ele>
        <time>2013-09-15T13:32:40Z</time>
      </trkpt>
      <trkpt lat="44.02561" lon="3.4983">
        <ele>1336</ele>
        <time>2013-09-15T13:33:01Z</time>
      </trkpt>
      <trkpt lat="44.02542" lon="3.49784">
        <ele>1342</ele>
        <time>2013-09-15T13:33:34Z</time>
      </trkpt>
      <trkpt lat="44.02529" lon="3.49764">
        <ele>1343</ele>
        <time>2013-09-15T13:33:49Z</time>
      </trkpt>
      <trkpt lat="44.02512" lon="3.49734">
        <ele>1344</ele>
        <time>2013-09-15T13:34:15Z</time>
      </trkpt>
      <trkpt lat="44.02503" lon="3.49709">
        <ele>1342</ele>
        <time>2013-09-15T13:34:36Z</time>
      </trkpt>
      <trkpt lat="44.02493" lon="3.49693">
        <ele>1337</ele>
        <time>2013-09-15T13:34:49Z</time>
      </trkpt>
      <trkpt lat="44.02483" lon="3.49672">
        <ele>1332</ele>
        <time>2013-09-15T13:35:07Z</time>
      </trkpt>
      <trkpt lat="44.0248" lon="3.4967">
        <ele>1330</ele>
        <time>2013-09-15T13:35:16Z</time>
      </trkpt>
      <trkpt lat="44.02477" lon="3.49662">
        <ele>1327</ele>
        <time>2013-09-15T13:35:24Z</time>
      </trkpt>
      <trkpt lat="44.02475" lon="3.49653">
        <ele>1324</ele>
        <time>2013-09-15T13:35:30Z</time>
      </trkpt>
      <trkpt lat="44.02476" lon="3.49643">
        <ele>1323</ele>
        <time>2013-09-15T13:35:38Z</time>
      </trkpt>
      <trkpt lat="44.02481" lon="3.49628">
        <ele>1324</ele>
        <time>2013-09-15T13:35:53Z</time>
      </trkpt>
      <trkpt lat="44.02492" lon="3.49606">
        <ele>1324</ele>
        <time>2013-09-15T13:36:12Z</time>
      </trkpt>
      <trkpt lat="44.02504" lon="3.49591">
        <ele>1326</ele>
        <time>2013-09-15T13:36:24Z</time>
      </trkpt>
      <trkpt lat="44.02517" lon="3.4958">
        <ele>1326</ele>
        <time>2013-09-15T13:36:38Z</time>
      </trkpt>
      <trkpt lat="44.02545" lon="3.49548">
        <ele>1328</ele>
        <time>2013-09-15T13:37:10Z</time>
      </trkpt>
      <trkpt lat="44.02562" lon="3.49539">
        <ele>1329</ele>
        <time>2013-09-15T13:37:27Z</time>
      </trkpt>
      <trkpt lat="44.02581" lon="3.49534">
        <ele>1330</ele>
        <time>2013-09-15T13:37:44Z</time>
      </trkpt>
      <trkpt lat="44.02591" lon="3.4953">
        <ele>1331</ele>
        <time>2013-09-15T13:37:52Z</time>
      </trkpt>
      <trkpt lat="44.02599" lon="3.49524">
        <ele>1330</ele>
        <time>2013-09-15T13:38:00Z</time>
      </trkpt>
      <trkpt lat="44.02602" lon="3.49515">
        <ele>1332</ele>
        <time>2013-09-15T13:38:10Z</time>
      </trkpt>
      <trkpt lat="44.02605" lon="3.49511">
        <ele>1333</ele>
        <time>2013-09-15T13:38:15Z</time>
      </trkpt>
      <trkpt lat="44.02618" lon="3.49499">
        <ele>1332</ele>
        <time>2013-09-15T13:38:42Z</time>
      </trkpt>
      <trkpt lat="44.02641" lon="3.49498">
        <ele>1329</ele>
        <time>2013-09-15T13:38:59Z</time>
      </trkpt>
      <trkpt lat="44.02671" lon="3.4949">
        <ele>1317</ele>
        <time>2013-09-15T13:39:18Z</time>
      </trkpt>
      <trkpt lat="44.02689" lon="3.4948">
        <ele>1316</ele>
        <time>2013-09-15T13:39:30Z</time>
      </trkpt>
      <trkpt lat="44.02695" lon="3.49472">
        <ele>1316</ele>
        <time>2013-09-15T13:39:40Z</time>
      </trkpt>
      <trkpt lat="44.02715" lon="3.49466">
        <ele>1317</ele>
        <time>2013-09-15T13:39:55Z</time>
      </trkpt>
      <trkpt lat="44.02722" lon="3.4946">
        <ele>1319</ele>
        <time>2013-09-15T13:40:02Z</time>
      </trkpt>
      <trkpt lat="44.02734" lon="3.49443">
        <ele>1322</ele>
        <time>2013-09-15T13:40:15Z</time>
      </trkpt>
      <trkpt lat="44.02745" lon="3.49435">
        <ele>1322</ele>
        <time>2013-09-15T13:40:25Z</time>
      </trkpt>
      <trkpt lat="44.02747" lon="3.49426">
        <ele>1317</ele>
        <time>2013-09-15T13:40:32Z</time>
      </trkpt>
      <trkpt lat="44.02756" lon="3.49416">
        <ele>1311</ele>
        <time>2013-09-15T13:40:41Z</time>
      </trkpt>
      <trkpt lat="44.02773" lon="3.49404">
        <ele>1310</ele>
        <time>2013-09-15T13:40:55Z</time>
      </trkpt>
      <trkpt lat="44.02792" lon="3.49386">
        <ele>1313</ele>
        <time>2013-09-15T13:41:13Z</time>
      </trkpt>
      <trkpt lat="44.02837" lon="3.49352">
        <ele>1314</ele>
        <time>2013-09-15T13:41:57Z</time>
      </trkpt>
      <trkpt lat="44.02866" lon="3.493">
        <ele>1293</ele>
        <time>2013-09-15T13:42:35Z</time>
      </trkpt>
      <trkpt lat="44.02867" lon="3.4929">
        <ele>1291</ele>
        <time>2013-09-15T13:42:42Z</time>
      </trkpt>
      <trkpt lat="44.02868" lon="3.49263">
        <ele>1288</ele>
        <time>2013-09-15T13:42:56Z</time>
      </trkpt>
      <trkpt lat="44.02866" lon="3.49241">
        <ele>1291</ele>
        <time>2013-09-15T13:43:07Z</time>
      </trkpt>
      <trkpt lat="44.02859" lon="3.49211">
        <ele>1292</ele>
        <time>2013-09-15T13:43:24Z</time>
      </trkpt>
      <trkpt lat="44.02848" lon="3.49186">
        <ele>1296</ele>
        <time>2013-09-15T13:43:43Z</time>
      </trkpt>
      <trkpt lat="44.02842" lon="3.49167">
        <ele>1298</ele>
        <time>2013-09-15T13:43:58Z</time>
      </trkpt>
      <trkpt lat="44.02836" lon="3.49137">
        <ele>1299</ele>
        <time>2013-09-15T13:44:19Z</time>
      </trkpt>
      <trkpt lat="44.02831" lon="3.4909">
        <ele>1306</ele>
        <time>2013-09-15T13:44:58Z</time>
      </trkpt>
      <trkpt lat="44.0282" lon="3.49053">
        <ele>1312</ele>
        <time>2013-09-15T13:45:33Z</time>
      </trkpt>
      <trkpt lat="44.02813" lon="3.49049">
        <ele>1314</ele>
        <time>2013-09-15T13:45:47Z</time>
      </trkpt>
      <trkpt lat="44.02782" lon="3.49046">
        <ele>1313</ele>
        <time>2013-09-15T13:46:14Z</time>
      </trkpt>
      <trkpt lat="44.02761" lon="3.49031">
        <ele>1308</ele>
        <time>2013-09-15T13:46:40Z</time>
      </trkpt>
      <trkpt lat="44.02743" lon="3.49029">
        <ele>1310</ele>
        <time>2013-09-15T13:46:54Z</time>
      </trkpt>
      <trkpt lat="44.02726" lon="3.49026">
        <ele>1312</ele>
        <time>2013-09-15T13:47:04Z</time>
      </trkpt>
      <trkpt lat="44.02719" lon="3.4902">
        <ele>1313</ele>
        <time>2013-09-15T13:47:09Z</time>
      </trkpt>
      <trkpt lat="44.02714" lon="3.49013">
        <ele>1314</ele>
        <time>2013-09-15T13:47:14Z</time>
      </trkpt>
      <trkpt lat="44.02709" lon="3.49004">
        <ele>1315</ele>
        <time>2013-09-15T13:47:22Z</time>
      </trkpt>
      <trkpt lat="44.02708" lon="3.48999">
        <ele>1315</ele>
        <time>2013-09-15T13:47:31Z</time>
      </trkpt>
      <trkpt lat="44.0271" lon="3.48992">
        <ele>1318</ele>
        <time>2013-09-15T13:47:41Z</time>
      </trkpt>
      <trkpt lat="44.02721" lon="3.48974">
        <ele>1322</ele>
        <time>2013-09-15T13:48:04Z</time>
      </trkpt>
      <trkpt lat="44.02744" lon="3.48929">
        <ele>1329</ele>
        <time>2013-09-15T13:48:44Z</time>
      </trkpt>
      <trkpt lat="44.02756" lon="3.489">
        <ele>1332</ele>
        <time>2013-09-15T13:49:04Z</time>
      </trkpt>
      <trkpt lat="44.02773" lon="3.48868">
        <ele>1333</ele>
        <time>2013-09-15T13:49:28Z</time>
      </trkpt>
      <trkpt lat="44.02796" lon="3.48842">
        <ele>1335</ele>
        <time>2013-09-15T13:49:54Z</time>
      </trkpt>
      <trkpt lat="44.0282" lon="3.48823">
        <ele>1335</ele>
        <time>2013-09-15T13:50:16Z</time>
      </trkpt>
      <trkpt lat="44.02828" lon="3.48814">
        <ele>1335</ele>
        <time>2013-09-15T13:50:24Z</time>
      </trkpt>
      <trkpt lat="44.02858" lon="3.48768">
        <ele>1336</ele>
        <time>2013-09-15T13:51:01Z</time>
      </trkpt>
      <trkpt lat="44.02865" lon="3.48762">
        <ele>1336</ele>
        <time>2013-09-15T13:51:09Z</time>
      </trkpt>
      <trkpt lat="44.02884" lon="3.48754">
        <ele>1338</ele>
        <time>2013-09-15T13:51:27Z</time>
      </trkpt>
      <trkpt lat="44.02895" lon="3.48748">
        <ele>1339</ele>
        <time>2013-09-15T13:51:37Z</time>
      </trkpt>
      <trkpt lat="44.029" lon="3.48744">
        <ele>1340</ele>
        <time>2013-09-15T13:51:43Z</time>
      </trkpt>
      <trkpt lat="44.02904" lon="3.48737">
        <ele>1341</ele>
        <time>2013-09-15T13:51:48Z</time>
      </trkpt>
      <trkpt lat="44.02916" lon="3.48702">
        <ele>1339</ele>
        <time>2013-09-15T13:52:10Z</time>
      </trkpt>
      <trkpt lat="44.02921" lon="3.48681">
        <ele>1340</ele>
        <time>2013-09-15T13:52:22Z</time>
      </trkpt>
      <trkpt lat="44.02921" lon="3.48666">
        <ele>1340</ele>
        <time>2013-09-15T13:52:32Z</time>
      </trkpt>
      <trkpt lat="44.02916" lon="3.48634">
        <ele>1341</ele>
        <time>2013-09-15T13:52:59Z</time>
      </trkpt>
      <trkpt lat="44.02916" lon="3.48625">
        <ele>1341</ele>
        <time>2013-09-15T13:53:08Z</time>
      </trkpt>
      <trkpt lat="44.02926" lon="3.48582">
        <ele>1343</ele>
        <time>2013-09-15T13:53:37Z</time>
      </trkpt>
      <trkpt lat="44.02931" lon="3.48543">
        <ele>1333</ele>
        <time>2013-09-15T13:54:03Z</time>
      </trkpt>
      <trkpt lat="44.02935" lon="3.48535">
        <ele>1327</ele>
        <time>2013-09-15T13:55:08Z</time>
      </trkpt>
    </trkseg>
  </trk>
</gpx>